Wetterdaten: Dienstag, 15.06.2021
Datum Zeit Temp. Aussen Temp. o. S. Temp +5cm Feuchte Auss Luftdruck Regen Sonnenschein Regendauer Solar Windben Empfang
15.06.2021 00:00 21,9 C 20,6 C 18,4 C 67 % 1019,0 hPa 0,0 l/m 0 min 0 min 0 W/m 16,1 km/h (3 Bft) 97,87 %
15.06.2021 00:02 21,8 C 20,6 C 18,4 C 68 % 1019,0 hPa 0,0 l/m 0 min 0 min 0 W/m 9,7 km/h (2 Bft) 100,00 %
15.06.2021 00:04 21,8 C 20,6 C 18,4 C 68 % 1019,1 hPa 0,0 l/m 0 min 0 min 0 W/m 9,7 km/h (2 Bft) 100,00 %
15.06.2021 00:08 21,6 C 20,6 C 17,8 C 68 % 1019,1 hPa 0,0 l/m 0 min 0 min 0 W/m 25,7 km/h (4 Bft) 96,81 %
15.06.2021 00:10 21,6 C 20,6 C 18,4 C 68 % 1019,1 hPa 0,0 l/m 0 min 0 min 0 W/m 12,9 km/h (3 Bft) 97,87 %
15.06.2021 00:12 21,6 C 20,6 C 18,4 C 68 % 1019,1 hPa 0,0 l/m 0 min 0 min 0 W/m 12,9 km/h (3 Bft) 95,65 %
15.06.2021 00:14 21,5 C 20,6 C 17,8 C 69 % 1019,0 hPa 0,0 l/m 0 min 0 min 0 W/m 12,9 km/h (3 Bft) 95,74 %
15.06.2021 00:16 21,5 C 20,6 C 17,8 C 69 % 1019,0 hPa 0,0 l/m 0 min 0 min 0 W/m 9,7 km/h (2 Bft) 97,87 %
15.06.2021 00:18 21,5 C 20,0 C 17,8 C 69 % 1019,0 hPa 0,0 l/m 0 min 0 min 0 W/m 12,9 km/h (3 Bft) 97,87 %
15.06.2021 00:20 21,4 C 20,0 C 17,8 C 69 % 1019,1 hPa 0,0 l/m 0 min 0 min 0 W/m 12,9 km/h (3 Bft) 97,87 %
15.06.2021 00:22 21,4 C 20,0 C 17,8 C 69 % 1019,0 hPa 0,0 l/m 0 min 0 min 0 W/m 12,9 km/h (3 Bft) 95,74 %
15.06.2021 00:24 21,3 C 20,0 C 17,8 C 70 % 1019,1 hPa 0,0 l/m 0 min 0 min 0 W/m 12,9 km/h (3 Bft) 95,74 %
15.06.2021 00:26 21,3 C 20,0 C 17,8 C 70 % 1019,0 hPa 0,0 l/m 0 min 0 min 0 W/m 9,7 km/h (2 Bft) 95,65 %
15.06.2021 00:28 21,2 C 20,0 C 17,8 C 70 % 1019,1 hPa 0,0 l/m 0 min 0 min 0 W/m 6,4 km/h (2 Bft) 95,74 %
15.06.2021 00:30 21,1 C 20,0 C 17,8 C 70 % 1019,1 hPa 0,0 l/m 0 min 0 min 0 W/m 6,4 km/h (2 Bft) 95,74 %
15.06.2021 00:32 21,1 C 20,0 C 17,8 C 70 % 1019,1 hPa 0,0 l/m 0 min 0 min 0 W/m 6,4 km/h (2 Bft) 95,74 %
15.06.2021 00:34 21,0 C 20,0 C 17,8 C 70 % 1019,1 hPa 0,0 l/m 0 min 0 min 0 W/m 6,4 km/h (2 Bft) 95,74 %
15.06.2021 00:36 21,0 C 20,0 C 17,8 C 71 % 1019,1 hPa 0,0 l/m 0 min 0 min 0 W/m 9,7 km/h (2 Bft) 95,74 %
15.06.2021 00:38 21,0 C 20,0 C 17,3 C 71 % 1019,1 hPa 0,0 l/m 0 min 0 min 0 W/m 3,2 km/h (1 Bft) 95,65 %
15.06.2021 00:40 21,0 C 20,0 C 17,3 C 71 % 1019,1 hPa 0,0 l/m 0 min 0 min 0 W/m 3,2 km/h (1 Bft) 93,62 %
15.06.2021 00:42 20,9 C 20,0 C 17,3 C 71 % 1019,1 hPa 0,0 l/m 0 min 0 min 0 W/m 3,2 km/h (1 Bft) 93,62 %
15.06.2021 00:44 20,9 C 20,0 C 17,3 C 71 % 1019,2 hPa 0,0 l/m 0 min 0 min 0 W/m 0,0 km/h (0 Bft) 93,62 %
15.06.2021 00:46 20,9 C 19,4 C 17,3 C 72 % 1019,1 hPa 0,0 l/m 0 min 0 min 0 W/m 0,0 km/h (0 Bft) 89,36 %
15.06.2021 00:48 20,9 C 19,4 C 17,3 C 72 % 1019,2 hPa 0,0 l/m 0 min 0 min 0 W/m 3,2 km/h (1 Bft) 93,48 %
15.06.2021 00:50 20,8 C 19,4 C 17,3 C 72 % 1019,1 hPa 0,0 l/m 0 min 0 min 0 W/m 3,2 km/h (1 Bft) 93,62 %
15.06.2021 00:52 20,7 C 19,4 C 17,3 C 72 % 1019,1 hPa 0,0 l/m 0 min 0 min 0 W/m 3,2 km/h (1 Bft) 93,62 %
15.06.2021 00:54 20,7 C 19,4 C 17,3 C 72 % 1019,1 hPa 0,0 l/m 0 min 0 min 0 W/m 6,4 km/h (2 Bft) 95,74 %
15.06.2021 00:56 20,6 C 19,4 C 17,3 C 72 % 1019,1 hPa 0,0 l/m 0 min 0 min 0 W/m 6,4 km/h (2 Bft) 95,74 %
15.06.2021 00:58 20,6 C 19,4 C 17,3 C 72 % 1019,1 hPa 0,0 l/m 0 min 0 min 0 W/m 6,4 km/h (2 Bft) 95,74 %
15.06.2021 01:00 20,5 C 19,4 C 17,3 C 72 % 1019,1 hPa 0,0 l/m 0 min 0 min 0 W/m 6,4 km/h (2 Bft) 95,65 %
15.06.2021 01:02 20,5 C 19,4 C 17,3 C 73 % 1019,1 hPa 0,0 l/m 0 min 0 min 0 W/m 6,4 km/h (2 Bft) 93,62 %
15.06.2021 01:04 20,5 C 19,4 C 17,3 C 73 % 1019,1 hPa 0,0 l/m 0 min 0 min 0 W/m 3,2 km/h (1 Bft) 97,87 %
15.06.2021 01:06 20,5 C 19,4 C 17,3 C 74 % 1019,1 hPa 0,0 l/m 0 min 0 min 0 W/m 3,2 km/h (1 Bft) 95,74 %
15.06.2021 01:08 20,5 C 19,4 C 17,3 C 74 % 1019,2 hPa 0,0 l/m 0 min 0 min 0 W/m 3,2 km/h (1 Bft) 93,62 %
15.06.2021 01:10 20,4 C 18,9 C 16,7 C 74 % 1019,1 hPa 0,0 l/m 0 min 0 min 0 W/m 3,2 km/h (1 Bft) 97,87 %
15.06.2021 01:12 20,4 C 18,9 C 16,7 C 74 % 1019,1 hPa 0,0 l/m 0 min 0 min 0 W/m 3,2 km/h (1 Bft) 97,83 %
15.06.2021 01:14 20,4 C 18,9 C 16,7 C 74 % 1019,1 hPa 0,0 l/m 0 min 0 min 0 W/m 3,2 km/h (1 Bft) 97,87 %
15.06.2021 01:16 20,3 C 18,9 C 16,7 C 74 % 1019,1 hPa 0,0 l/m 0 min 0 min 0 W/m 0,0 km/h (0 Bft) 95,74 %
15.06.2021 01:18 20,3 C 18,9 C 16,7 C 74 % 1019,2 hPa 0,0 l/m 0 min 0 min 0 W/m 0,0 km/h (0 Bft) 97,87 %
15.06.2021 01:20 20,3 C 18,9 C 16,7 C 75 % 1019,2 hPa 0,0 l/m 0 min 0 min 0 W/m 6,4 km/h (2 Bft) 97,87 %
15.06.2021 01:22 20,2 C 18,9 C 16,7 C 74 % 1019,1 hPa 0,0 l/m 0 min 0 min 0 W/m 6,4 km/h (2 Bft) 97,87 %
15.06.2021 01:24 20,2 C 18,9 C 16,7 C 74 % 1019,2 hPa 0,0 l/m 0 min 0 min 0 W/m 6,4 km/h (2 Bft) 95,65 %
15.06.2021 01:26 20,1 C 18,9 C 16,7 C 75 % 1019,1 hPa 0,0 l/m 0 min 0 min 0 W/m 9,7 km/h (2 Bft) 95,74 %
15.06.2021 01:28 20,1 C 18,9 C 16,7 C 75 % 1019,2 hPa 0,0 l/m 0 min 0 min 0 W/m 3,2 km/h (1 Bft) 97,87 %
15.06.2021 01:30 20,1 C 18,9 C 16,7 C 75 % 1019,2 hPa 0,0 l/m 0 min 0 min 0 W/m 9,7 km/h (2 Bft) 97,87 %
15.06.2021 01:32 20,0 C 18,9 C 16,7 C 75 % 1019,2 hPa 0,0 l/m 0 min 0 min 0 W/m 3,2 km/h (1 Bft) 97,87 %
15.06.2021 01:34 20,0 C 18,9 C 16,7 C 76 % 1019,2 hPa 0,0 l/m 0 min 0 min 0 W/m 9,7 km/h (2 Bft) 97,87 %
15.06.2021 01:36 20,0 C 18,9 C 16,7 C 75 % 1019,2 hPa 0,0 l/m 0 min 0 min 0 W/m 9,7 km/h (2 Bft) 97,83 %
15.06.2021 01:38 19,9 C 18,9 C 16,7 C 75 % 1019,1 hPa 0,0 l/m 0 min 0 min 0 W/m 3,2 km/h (1 Bft) 97,87 %
15.06.2021 01:40 19,9 C 18,9 C 16,7 C 75 % 1019,1 hPa 0,0 l/m 0 min 0 min 0 W/m 6,4 km/h (2 Bft) 97,87 %
15.06.2021 01:42 19,9 C 18,9 C 16,7 C 76 % 1019,1 hPa 0,0 l/m 0 min 0 min 0 W/m 6,4 km/h (2 Bft) 97,87 %
15.06.2021 01:44 19,8 C 18,9 C 16,7 C 76 % 1019,1 hPa 0,0 l/m 0 min 0 min 0 W/m 6,4 km/h (2 Bft) 97,87 %
15.06.2021 01:46 19,8 C 18,9 C 16,7 C 76 % 1019,1 hPa 0,0 l/m 0 min 0 min 0 W/m 3,2 km/h (1 Bft) 93,62 %
15.06.2021 01:48 19,8 C 18,9 C 16,7 C 76 % 1019,1 hPa 0,0 l/m 0 min 0 min 0 W/m 3,2 km/h (1 Bft) 97,83 %
15.06.2021 01:50 19,8 C 18,9 C 16,1 C 76 % 1019,1 hPa 0,0 l/m 0 min 0 min 0 W/m 3,2 km/h (1 Bft) 95,74 %
15.06.2021 01:52 19,8 C 18,9 C 16,1 C 76 % 1019,1 hPa 0,0 l/m 0 min 0 min 0 W/m 6,4 km/h (2 Bft) 97,87 %
15.06.2021 01:54 19,7 C 18,3 C 16,1 C 76 % 1019,1 hPa 0,0 l/m 0 min 0 min 0 W/m 6,4 km/h (2 Bft) 100,00 %
15.06.2021 01:56 19,7 C 18,3 C 16,1 C 77 % 1019,2 hPa 0,0 l/m 0 min 0 min 0 W/m 3,2 km/h (1 Bft) 97,87 %
15.06.2021 01:58 19,6 C 18,3 C 16,1 C 77 % 1019,1 hPa 0,0 l/m 0 min 0 min 0 W/m 3,2 km/h (1 Bft) 100,00 %
15.06.2021 02:00 19,6 C 18,3 C 16,1 C 77 % 1019,1 hPa 0,0 l/m 0 min 0 min 0 W/m 6,4 km/h (2 Bft) 97,83 %
15.06.2021 02:02 19,6 C 18,3 C 16,1 C 77 % 1019,2 hPa 0,0 l/m 0 min 0 min 0 W/m 3,2 km/h (1 Bft) 100,00 %
15.06.2021 02:04 19,6 C 18,3 C 16,1 C 77 % 1019,1 hPa 0,0 l/m 0 min 0 min 0 W/m 3,2 km/h (1 Bft) 100,00 %
15.06.2021 02:06 19,6 C 18,3 C 16,1 C 77 % 1019,1 hPa 0,0 l/m 0 min 0 min 0 W/m 3,2 km/h (1 Bft) 100,00 %
15.06.2021 02:08 19,5 C 18,3 C 16,1 C 77 % 1019,1 hPa 0,0 l/m 0 min 0 min 0 W/m 3,2 km/h (1 Bft) 97,87 %
15.06.2021 02:10 19,5 C 18,3 C 16,1 C 77 % 1019,2 hPa 0,0 l/m 0 min 0 min 0 W/m 6,4 km/h (2 Bft) 100,00 %
15.06.2021 02:12 19,5 C 18,3 C 16,1 C 77 % 1019,1 hPa 0,0 l/m 0 min 0 min 0 W/m 3,2 km/h (1 Bft) 100,00 %
15.06.2021 02:14 19,4 C 18,3 C 16,1 C 77 % 1019,2 hPa 0,0 l/m 0 min 0 min 0 W/m 6,4 km/h (2 Bft) 100,00 %
15.06.2021 02:16 19,4 C 18,3 C 16,1 C 77 % 1019,2 hPa 0,0 l/m 0 min 0 min 0 W/m 3,2 km/h (1 Bft) 100,00 %
15.06.2021 02:18 19,4 C 18,3 C 16,1 C 78 % 1019,1 hPa 0,0 l/m 0 min 0 min 0 W/m 3,2 km/h (1 Bft) 100,00 %
15.06.2021 02:20 19,4 C 18,3 C 15,6 C 78 % 1019,1 hPa 0,0 l/m 0 min 0 min 0 W/m 3,2 km/h (1 Bft) 100,00 %
15.06.2021 02:22 19,3 C 18,3 C 15,6 C 78 % 1019,2 hPa 0,0 l/m 0 min 0 min 0 W/m 3,2 km/h (1 Bft) 100,00 %
15.06.2021 02:24 19,3 C 17,8 C 15,6 C 78 % 1019,2 hPa 0,0 l/m 0 min 0 min 0 W/m 6,4 km/h (2 Bft) 100,00 %
15.06.2021 02:26 19,3 C 17,8 C 15,6 C 78 % 1019,2 hPa 0,0 l/m 0 min 0 min 0 W/m 3,2 km/h (1 Bft) 100,00 %
15.06.2021 02:28 19,2 C 17,8 C 15,6 C 78 % 1019,1 hPa 0,0 l/m 0 min 0 min 0 W/m 3,2 km/h (1 Bft) 100,00 %
15.06.2021 02:30 19,1 C 17,8 C 15,6 C 79 % 1019,1 hPa 0,0 l/m 0 min 0 min 0 W/m 0,0 km/h (0 Bft) 100,00 %
15.06.2021 02:32 19,1 C 17,8 C 15,6 C 79 % 1019,1 hPa 0,0 l/m 0 min 0 min 0 W/m 3,2 km/h (1 Bft) 97,87 %
15.06.2021 02:34 19,1 C 17,8 C 15,6 C 79 % 1019,1 hPa 0,0 l/m 0 min 0 min 0 W/m 0,0 km/h (0 Bft) 100,00 %
15.06.2021 02:36 19,1 C 17,8 C 15,6 C 79 % 1019,1 hPa 0,0 l/m 0 min 0 min 0 W/m 0,0 km/h (0 Bft) 100,00 %
15.06.2021 02:38 19,0 C 17,8 C 15,6 C 79 % 1019,1 hPa 0,0 l/m 0 min 0 min 0 W/m 0,0 km/h (0 Bft) 100,00 %
15.06.2021 02:40 19,0 C 17,2 C 15,6 C 80 % 1019,1 hPa 0,0 l/m 0 min 0 min 0 W/m 3,2 km/h (1 Bft) 100,00 %
15.06.2021 02:42 19,0 C 17,2 C 15,6 C 80 % 1019,2 hPa 0,0 l/m 0 min 0 min 0 W/m 0,0 km/h (0 Bft) 95,74 %
15.06.2021 02:44 18,9 C 17,2 C 15,0 C 80 % 1019,2 hPa 0,0 l/m 0 min 0 min 0 W/m 3,2 km/h (1 Bft) 97,87 %
15.06.2021 02:46 18,9 C 17,2 C 15,6 C 80 % 1019,2 hPa 0,0 l/m 0 min 0 min 0 W/m 3,2 km/h (1 Bft) 95,65 %
15.06.2021 02:48 18,8 C 17,2 C 15,0 C 80 % 1019,2 hPa 0,0 l/m 0 min 0 min 0 W/m 3,2 km/h (1 Bft) 100,00 %
15.06.2021 02:50 18,8 C 17,2 C 15,0 C 80 % 1019,2 hPa 0,0 l/m 0 min 0 min 0 W/m 3,2 km/h (1 Bft) 97,87 %
15.06.2021 02:52 18,7 C 17,2 C 15,0 C 80 % 1019,1 hPa 0,0 l/m 0 min 0 min 0 W/m 3,2 km/h (1 Bft) 97,87 %
15.06.2021 02:54 18,6 C 17,2 C 15,0 C 80 % 1019,1 hPa 0,0 l/m 0 min 0 min 0 W/m 3,2 km/h (1 Bft) 97,87 %
15.06.2021 02:56 18,6 C 17,2 C 15,0 C 81 % 1019,1 hPa 0,0 l/m 0 min 0 min 0 W/m 0,0 km/h (0 Bft) 97,87 %
15.06.2021 02:58 18,5 C 17,2 C 15,0 C 81 % 1019,1 hPa 0,0 l/m 0 min 0 min 0 W/m 0,0 km/h (0 Bft) 97,83 %
15.06.2021 03:00 18,5 C 17,2 C 15,0 C 81 % 1019,2 hPa 0,0 l/m 0 min 0 min 0 W/m 3,2 km/h (1 Bft) 95,74 %
15.06.2021 03:02 18,4 C 17,2 C 15,0 C 82 % 1019,1 hPa 0,0 l/m 0 min 0 min 0 W/m 3,2 km/h (1 Bft) 97,87 %
15.06.2021 03:04 18,4 C 17,2 C 15,0 C 81 % 1019,2 hPa 0,0 l/m 0 min 0 min 0 W/m 0,0 km/h (0 Bft) 97,87 %
15.06.2021 03:06 18,3 C 17,2 C 15,0 C 82 % 1019,2 hPa 0,0 l/m 0 min 0 min 0 W/m 0,0 km/h (0 Bft) 93,62 %
15.06.2021 03:08 18,3 C 16,7 C 15,0 C 82 % 1019,2 hPa 0,0 l/m 0 min 0 min 0 W/m 0,0 km/h (0 Bft) 95,74 %
15.06.2021 03:10 18,2 C 16,7 C 15,0 C 82 % 1019,2 hPa 0,0 l/m 0 min 0 min 0 W/m 0,0 km/h (0 Bft) 95,65 %
15.06.2021 03:12 18,1 C 16,7 C 15,0 C 83 % 1019,2 hPa 0,0 l/m 0 min 0 min 0 W/m 3,2 km/h (1 Bft) 93,62 %
15.06.2021 03:14 18,1 C 16,7 C 15,0 C 83 % 1019,2 hPa 0,0 l/m 0 min 0 min 0 W/m 0,0 km/h (0 Bft) 95,74 %
15.06.2021 03:16 18,1 C 16,7 C 15,0 C 83 % 1019,3 hPa 0,0 l/m 0 min 0 min 0 W/m 0,0 km/h (0 Bft) 95,74 %
15.06.2021 03:18 18,0 C 16,7 C 15,0 C 83 % 1019,2 hPa 0,0 l/m 0 min 0 min 0 W/m 3,2 km/h (1 Bft) 95,74 %
15.06.2021 03:20 18,0 C 16,7 C 15,0 C 83 % 1019,3 hPa 0,0 l/m 0 min 0 min 0 W/m 0,0 km/h (0 Bft) 95,74 %
15.06.2021 03:22 18,0 C 16,7 C 15,0 C 84 % 1019,2 hPa 0,0 l/m 0 min 0 min 0 W/m 0,0 km/h (0 Bft) 93,48 %
15.06.2021 03:24 18,0 C 16,7 C 15,0 C 84 % 1019,2 hPa 0,0 l/m 0 min 0 min 0 W/m 0,0 km/h (0 Bft) 95,74 %
15.06.2021 03:26 18,0 C 16,7 C 15,0 C 84 % 1019,2 hPa 0,0 l/m 0 min 0 min 0 W/m 0,0 km/h (0 Bft) 93,62 %
15.06.2021 03:28 18,0 C 16,7 C 15,0 C 84 % 1019,2 hPa 0,0 l/m 0 min 0 min 0 W/m 3,2 km/h (1 Bft) 95,74 %
15.06.2021 03:30 17,9 C 16,7 C 15,0 C 84 % 1019,2 hPa 0,0 l/m 0 min 0 min 0 W/m 0,0 km/h (0 Bft) 95,74 %
15.06.2021 03:32 17,9 C 16,7 C 15,0 C 84 % 1019,3 hPa 0,0 l/m 0 min 0 min 0 W/m 0,0 km/h (0 Bft) 95,74 %
15.06.2021 03:34 17,9 C 16,7 C 15,0 C 84 % 1019,2 hPa 0,0 l/m 0 min 0 min 0 W/m 3,2 km/h (1 Bft) 95,65 %
15.06.2021 03:36 17,9 C 16,7 C 15,0 C 84 % 1019,3 hPa 0,0 l/m 0 min 0 min 0 W/m 6,4 km/h (2 Bft) 95,74 %
15.06.2021 03:38 17,9 C 16,7 C 15,0 C 84 % 1019,2 hPa 0,0 l/m 0 min 0 min 0 W/m 3,2 km/h (1 Bft) 95,74 %
15.06.2021 03:40 17,9 C 16,7 C 15,0 C 84 % 1019,3 hPa 0,0 l/m 0 min 0 min 0 W/m 3,2 km/h (1 Bft) 95,74 %
15.06.2021 03:42 17,9 C 16,7 C 15,0 C 84 % 1019,3 hPa 0,0 l/m 0 min 0 min 0 W/m 3,2 km/h (1 Bft) 97,87 %
15.06.2021 03:44 17,9 C 16,7 C 15,0 C 85 % 1019,3 hPa 0,0 l/m 0 min 0 min 0 W/m 3,2 km/h (1 Bft) 97,87 %
15.06.2021 03:46 17,9 C 16,7 C 15,0 C 85 % 1019,3 hPa 0,0 l/m 0 min 0 min 0 W/m 3,2 km/h (1 Bft) 97,83 %
15.06.2021 03:48 17,8 C 16,7 C 15,0 C 85 % 1019,3 hPa 0,0 l/m 0 min 0 min 0 W/m 3,2 km/h (1 Bft) 97,87 %
15.06.2021 03:50 17,8 C 16,7 C 15,0 C 85 % 1019,3 hPa 0,0 l/m 0 min 0 min 0 W/m 3,2 km/h (1 Bft) 97,87 %
15.06.2021 03:52 17,8 C 16,7 C 15,0 C 85 % 1019,3 hPa 0,0 l/m 0 min 0 min 0 W/m 6,4 km/h (2 Bft) 97,87 %
15.06.2021 03:54 17,8 C 16,7 C 15,0 C 85 % 1019,3 hPa 0,0 l/m 0 min 0 min 0 W/m 6,4 km/h (2 Bft) 97,87 %
15.06.2021 03:56 17,7 C 16,7 C 15,0 C 85 % 1019,3 hPa 0,0 l/m 0 min 0 min 0 W/m 6,4 km/h (2 Bft) 97,87 %
15.06.2021 03:58 17,7 C 16,7 C 15,0 C 85 % 1019,3 hPa 0,0 l/m 0 min 0 min 0 W/m 0,0 km/h (0 Bft) 95,65 %
15.06.2021 04:00 17,7 C 16,7 C 15,0 C 85 % 1019,3 hPa 0,0 l/m 0 min 0 min 0 W/m 3,2 km/h (1 Bft) 100,00 %
15.06.2021 04:05 17,6 C 16,7 C 15,0 C 85 % 1019,2 hPa 0,0 l/m 0 min 0 min 0 W/m 0,0 km/h (0 Bft) 60,53 %
15.06.2021 04:10 17,6 C 16,7 C 15,0 C 86 % 1019,2 hPa 0,0 l/m 0 min 0 min 0 W/m 6,4 km/h (2 Bft) 100,00 %
15.06.2021 04:12 17,6 C 16,7 C 14,5 C 86 % 1019,3 hPa 0,0 l/m 0 min 0 min 0 W/m 6,4 km/h (2 Bft) 100,00 %
15.06.2021 04:14 17,6 C 16,7 C 14,5 C 86 % 1019,3 hPa 0,0 l/m 0 min 0 min 0 W/m 6,4 km/h (2 Bft) 100,00 %
15.06.2021 04:16 17,5 C 16,7 C 14,5 C 86 % 1019,3 hPa 0,0 l/m 0 min 0 min 0 W/m 3,2 km/h (1 Bft) 100,00 %
15.06.2021 04:18 17,5 C 16,7 C 14,5 C 86 % 1019,3 hPa 0,0 l/m 0 min 0 min 0 W/m 3,2 km/h (1 Bft) 100,00 %
15.06.2021 04:20 17,5 C 16,7 C 14,5 C 86 % 1019,2 hPa 0,0 l/m 0 min 0 min 0 W/m 0,0 km/h (0 Bft) 100,00 %
15.06.2021 04:22 17,5 C 16,7 C 14,5 C 87 % 1019,2 hPa 0,0 l/m 0 min 0 min 0 W/m 3,2 km/h (1 Bft) 95,74 %
15.06.2021 04:24 17,5 C 16,7 C 14,5 C 87 % 1019,2 hPa 0,0 l/m 0 min 0 min 0 W/m 3,2 km/h (1 Bft) 100,00 %
15.06.2021 04:26 17,5 C 16,7 C 14,5 C 87 % 1019,3 hPa 0,0 l/m 0 min 0 min 0 W/m 6,4 km/h (2 Bft) 97,87 %
15.06.2021 04:28 17,5 C 16,7 C 14,5 C 87 % 1019,2 hPa 0,0 l/m 0 min 0 min 0 W/m 6,4 km/h (2 Bft) 100,00 %
15.06.2021 04:30 17,4 C 16,7 C 14,5 C 87 % 1019,2 hPa 0,0 l/m 0 min 0 min 0 W/m 3,2 km/h (1 Bft) 100,00 %
15.06.2021 04:32 17,4 C 16,7 C 14,5 C 87 % 1019,2 hPa 0,0 l/m 0 min 0 min 0 W/m 6,4 km/h (2 Bft) 100,00 %
15.06.2021 04:34 17,4 C 16,7 C 14,5 C 87 % 1019,2 hPa 0,0 l/m 0 min 0 min 0 W/m 3,2 km/h (1 Bft) 100,00 %
15.06.2021 04:36 17,4 C 16,7 C 14,5 C 87 % 1019,2 hPa 0,0 l/m 0 min 0 min 0 W/m 3,2 km/h (1 Bft) 100,00 %
15.06.2021 04:38 17,4 C 16,7 C 14,5 C 87 % 1019,2 hPa 0,0 l/m 0 min 0 min 0 W/m 3,2 km/h (1 Bft) 100,00 %
15.06.2021 04:40 17,4 C 16,7 C 14,5 C 87 % 1019,2 hPa 0,0 l/m 0 min 0 min 0 W/m 3,2 km/h (1 Bft) 100,00 %
15.06.2021 04:42 17,4 C 16,7 C 14,5 C 88 % 1019,2 hPa 0,0 l/m 0 min 0 min 0 W/m 6,4 km/h (2 Bft) 97,83 %
15.06.2021 04:44 17,4 C 16,7 C 14,5 C 88 % 1019,2 hPa 0,0 l/m 0 min 0 min 0 W/m 6,4 km/h (2 Bft) 100,00 %
15.06.2021 04:46 17,3 C 16,7 C 14,5 C 88 % 1019,2 hPa 0,0 l/m 0 min 0 min 0 W/m 6,4 km/h (2 Bft) 100,00 %
15.06.2021 04:48 17,3 C 16,1 C 14,5 C 88 % 1019,3 hPa 0,0 l/m 0 min 0 min 0 W/m 9,7 km/h (2 Bft) 100,00 %
15.06.2021 04:50 17,3 C 16,1 C 14,5 C 88 % 1019,3 hPa 0,0 l/m 0 min 0 min 0 W/m 3,2 km/h (1 Bft) 100,00 %
15.06.2021 04:52 17,3 C 16,7 C 14,5 C 88 % 1019,3 hPa 0,0 l/m 0 min 0 min 0 W/m 3,2 km/h (1 Bft) 100,00 %
15.06.2021 04:54 17,3 C 16,7 C 14,5 C 88 % 1019,3 hPa 0,0 l/m 0 min 0 min 0 W/m 6,4 km/h (2 Bft) 100,00 %
15.06.2021 04:56 17,3 C 16,1 C 14,5 C 88 % 1019,2 hPa 0,0 l/m 0 min 0 min 0 W/m 6,4 km/h (2 Bft) 100,00 %
15.06.2021 04:58 17,3 C 16,1 C 14,5 C 88 % 1019,3 hPa 0,0 l/m 0 min 0 min 0 W/m 6,4 km/h (2 Bft) 100,00 %
15.06.2021 05:00 17,3 C 16,1 C 14,5 C 88 % 1019,2 hPa 0,0 l/m 0 min 0 min 0 W/m 9,7 km/h (2 Bft) 100,00 %
15.06.2021 05:02 17,3 C 16,1 C 14,5 C 88 % 1019,3 hPa 0,0 l/m 0 min 0 min 0 W/m 6,4 km/h (2 Bft) 100,00 %
15.06.2021 05:04 17,2 C 16,1 C 14,5 C 88 % 1019,3 hPa 0,0 l/m 0 min 0 min 0 W/m 6,4 km/h (2 Bft) 100,00 %
15.06.2021 05:06 17,3 C 16,1 C 14,5 C 88 % 1019,3 hPa 0,0 l/m 0 min 0 min 0 W/m 3,2 km/h (1 Bft) 100,00 %
15.06.2021 05:08 17,2 C 16,1 C 14,5 C 89 % 1019,3 hPa 0,0 l/m 0 min 0 min 0 W/m 3,2 km/h (1 Bft) 97,87 %
15.06.2021 05:10 17,2 C 16,1 C 14,5 C 89 % 1019,3 hPa 0,0 l/m 0 min 0 min 0 W/m 6,4 km/h (2 Bft) 100,00 %
15.06.2021 05:12 17,2 C 16,1 C 14,5 C 89 % 1019,3 hPa 0,0 l/m 0 min 0 min 0 W/m 6,4 km/h (2 Bft) 100,00 %
15.06.2021 05:14 17,1 C 16,1 C 14,5 C 89 % 1019,4 hPa 0,0 l/m 0 min 0 min 0 W/m 3,2 km/h (1 Bft) 100,00 %
15.06.2021 05:16 17,1 C 16,1 C 14,5 C 89 % 1019,5 hPa 0,0 l/m 0 min 0 min 0 W/m 6,4 km/h (2 Bft) 100,00 %
15.06.2021 05:18 17,1 C 16,1 C 14,5 C 89 % 1019,5 hPa 0,0 l/m 0 min 0 min 0 W/m 6,4 km/h (2 Bft) 97,83 %
15.06.2021 05:20 17,1 C 16,1 C 14,5 C 89 % 1019,4 hPa 0,0 l/m 0 min 0 min 0 W/m 6,4 km/h (2 Bft) 100,00 %
15.06.2021 05:22 17,1 C 16,1 C 14,5 C 89 % 1019,5 hPa 0,0 l/m 0 min 0 min 0 W/m 6,4 km/h (2 Bft) 97,87 %
15.06.2021 05:24 17,0 C 16,1 C 14,5 C 89 % 1019,5 hPa 0,0 l/m 0 min 0 min 0 W/m 6,4 km/h (2 Bft) 97,87 %
15.06.2021 05:26 17,0 C 16,1 C 14,5 C 89 % 1019,5 hPa 0,0 l/m 0 min 0 min 4 W/m 6,4 km/h (2 Bft) 97,87 %
15.06.2021 05:28 17,0 C 16,1 C 14,5 C 89 % 1019,5 hPa 0,0 l/m 0 min 0 min 5 W/m 9,7 km/h (2 Bft) 95,65 %
15.06.2021 05:30 17,0 C 16,1 C 14,5 C 89 % 1019,5 hPa 0,0 l/m 0 min 0 min 5 W/m 0,0 km/h (0 Bft) 95,74 %
15.06.2021 05:32 17,0 C 16,1 C 14,5 C 89 % 1019,5 hPa 0,0 l/m 0 min 0 min 7 W/m 3,2 km/h (1 Bft) 93,62 %
15.06.2021 05:34 17,0 C 16,1 C 14,5 C 89 % 1019,5 hPa 0,0 l/m 0 min 0 min 8 W/m 3,2 km/h (1 Bft) 93,62 %
15.06.2021 05:36 17,0 C 16,1 C 14,5 C 89 % 1019,6 hPa 0,0 l/m 0 min 0 min 10 W/m 3,2 km/h (1 Bft) 93,62 %
15.06.2021 05:38 17,0 C 16,1 C 14,5 C 89 % 1019,5 hPa 0,0 l/m 0 min 0 min 11 W/m 9,7 km/h (2 Bft) 95,74 %
15.06.2021 05:40 16,9 C 16,1 C 14,5 C 89 % 1019,5 hPa 0,0 l/m 0 min 0 min 12 W/m 0,0 km/h (0 Bft) 93,48 %
15.06.2021 05:42 16,9 C 16,1 C 14,5 C 89 % 1019,6 hPa 0,0 l/m 0 min 0 min 12 W/m 6,4 km/h (2 Bft) 95,74 %
15.06.2021 05:44 16,9 C 16,1 C 14,5 C 90 % 1019,5 hPa 0,0 l/m 0 min 0 min 14 W/m 3,2 km/h (1 Bft) 95,74 %
15.06.2021 05:46 16,9 C 16,1 C 14,5 C 89 % 1019,5 hPa 0,0 l/m 0 min 0 min 17 W/m 6,4 km/h (2 Bft) 95,74 %
15.06.2021 05:48 16,9 C 16,1 C 14,5 C 90 % 1019,5 hPa 0,0 l/m 0 min 0 min 18 W/m 6,4 km/h (2 Bft) 95,74 %
15.06.2021 05:50 16,9 C 16,1 C 14,5 C 90 % 1019,5 hPa 0,0 l/m 0 min 0 min 19 W/m 6,4 km/h (2 Bft) 95,74 %
15.06.2021 05:52 16,9 C 16,1 C 14,5 C 90 % 1019,6 hPa 0,0 l/m 0 min 0 min 21 W/m 6,4 km/h (2 Bft) 95,65 %
15.06.2021 05:54 16,9 C 16,1 C 14,5 C 90 % 1019,5 hPa 0,0 l/m 0 min 0 min 22 W/m 6,4 km/h (2 Bft) 97,87 %
15.06.2021 05:56 16,9 C 16,1 C 14,5 C 90 % 1019,6 hPa 0,0 l/m 0 min 0 min 24 W/m 9,7 km/h (2 Bft) 95,74 %
15.06.2021 05:58 16,9 C 16,1 C 14,5 C 90 % 1019,7 hPa 0,0 l/m 0 min 0 min 25 W/m 6,4 km/h (2 Bft) 95,74 %
15.06.2021 06:00 16,9 C 16,1 C 14,5 C 90 % 1019,7 hPa 0,0 l/m 0 min 0 min 26 W/m 9,7 km/h (2 Bft) 95,74 %
15.06.2021 06:02 16,9 C 16,1 C 14,5 C 90 % 1019,7 hPa 0,0 l/m 0 min 0 min 28 W/m 9,7 km/h (2 Bft) 95,74 %
15.06.2021 06:04 16,9 C 16,1 C 14,5 C 90 % 1019,7 hPa 0,0 l/m 0 min 0 min 29 W/m 9,7 km/h (2 Bft) 95,65 %
15.06.2021 06:08 16,9 C 16,1 C 14,5 C 90 % 1019,9 hPa 0,0 l/m 0 min 0 min 31 W/m 9,7 km/h (2 Bft) 95,74 %
15.06.2021 06:10 16,9 C 16,1 C 14,5 C 90 % 1019,9 hPa 0,0 l/m 0 min 0 min 33 W/m 16,1 km/h (3 Bft) 95,74 %
15.06.2021 06:12 16,9 C 16,1 C 14,5 C 90 % 1019,9 hPa 0,0 l/m 0 min 0 min 34 W/m 16,1 km/h (3 Bft) 95,74 %
15.06.2021 06:14 16,9 C 16,1 C 14,5 C 90 % 1020,0 hPa 0,0 l/m 0 min 0 min 36 W/m 9,7 km/h (2 Bft) 95,74 %
15.06.2021 06:16 16,9 C 16,7 C 14,5 C 90 % 1020,0 hPa 0,0 l/m 0 min 0 min 39 W/m 6,4 km/h (2 Bft) 97,83 %
15.06.2021 06:18 16,9 C 16,7 C 14,5 C 90 % 1020,0 hPa 0,0 l/m 0 min 0 min 40 W/m 12,9 km/h (3 Bft) 95,74 %
15.06.2021 06:20 16,9 C 16,7 C 14,5 C 90 % 1020,0 hPa 0,0 l/m 0 min 0 min 40 W/m 16,1 km/h (3 Bft) 93,62 %
15.06.2021 06:22 16,9 C 16,7 C 14,5 C 90 % 1020,0 hPa 0,0 l/m 0 min 0 min 41 W/m 9,7 km/h (2 Bft) 95,74 %
15.06.2021 06:24 16,9 C 16,7 C 14,5 C 91 % 1020,0 hPa 0,0 l/m 0 min 0 min 42 W/m 6,4 km/h (2 Bft) 95,74 %
15.06.2021 06:26 16,9 C 16,7 C 14,5 C 91 % 1020,0 hPa 0,0 l/m 0 min 0 min 44 W/m 12,9 km/h (3 Bft) 93,62 %
15.06.2021 06:28 16,9 C 16,7 C 14,5 C 90 % 1020,0 hPa 0,0 l/m 0 min 0 min 44 W/m 12,9 km/h (3 Bft) 95,65 %
15.06.2021 06:30 16,9 C 16,7 C 15,0 C 90 % 1020,1 hPa 0,0 l/m 0 min 0 min 45 W/m 6,4 km/h (2 Bft) 95,74 %
15.06.2021 06:32 17,0 C 16,7 C 14,5 C 90 % 1020,1 hPa 0,0 l/m 0 min 0 min 46 W/m 9,7 km/h (2 Bft) 93,62 %
15.06.2021 06:34 17,0 C 16,7 C 15,0 C 90 % 1020,1 hPa 0,0 l/m 0 min 0 min 47 W/m 9,7 km/h (2 Bft) 95,74 %
15.06.2021 06:36 17,0 C 16,7 C 15,0 C 90 % 1020,1 hPa 0,0 l/m 0 min 0 min 49 W/m 9,7 km/h (2 Bft) 95,74 %
15.06.2021 06:38 17,0 C 16,7 C 15,0 C 90 % 1020,2 hPa 0,0 l/m 0 min 0 min 53 W/m 6,4 km/h (2 Bft) 95,74 %
15.06.2021 06:40 17,0 C 16,7 C 15,0 C 90 % 1020,1 hPa 0,0 l/m 0 min 0 min 54 W/m 12,9 km/h (3 Bft) 97,83 %
15.06.2021 06:42 17,0 C 16,7 C 15,0 C 90 % 1020,1 hPa 0,0 l/m 0 min 0 min 54 W/m 6,4 km/h (2 Bft) 97,87 %
15.06.2021 06:44 17,0 C 16,7 C 15,0 C 90 % 1020,1 hPa 0,0 l/m 0 min 0 min 53 W/m 6,4 km/h (2 Bft) 97,87 %
15.06.2021 06:46 17,0 C 16,7 C 15,0 C 90 % 1020,1 hPa 0,0 l/m 0 min 0 min 51 W/m 3,2 km/h (1 Bft) 97,87 %
15.06.2021 06:48 17,0 C 16,7 C 15,0 C 90 % 1020,2 hPa 0,0 l/m 0 min 0 min 51 W/m 9,7 km/h (2 Bft) 95,74 %
15.06.2021 06:50 17,0 C 16,7 C 15,0 C 90 % 1020,2 hPa 0,0 l/m 0 min 0 min 53 W/m 12,9 km/h (3 Bft) 95,74 %
15.06.2021 06:52 17,0 C 16,7 C 15,0 C 90 % 1020,1 hPa 0,0 l/m 0 min 0 min 56 W/m 6,4 km/h (2 Bft) 97,83 %
15.06.2021 06:54 17,0 C 16,7 C 15,0 C 90 % 1020,2 hPa 0,0 l/m 0 min 0 min 62 W/m 6,4 km/h (2 Bft) 95,74 %
15.06.2021 06:56 17,1 C 16,7 C 15,0 C 90 % 1020,1 hPa 0,0 l/m 0 min 0 min 66 W/m 6,4 km/h (2 Bft) 97,87 %
15.06.2021 06:58 17,1 C 16,7 C 15,0 C 90 % 1020,1 hPa 0,0 l/m 0 min 0 min 68 W/m 6,4 km/h (2 Bft) 95,74 %
15.06.2021 07:00 17,1 C 17,2 C 15,0 C 90 % 1020,2 hPa 0,0 l/m 0 min 0 min 71 W/m 6,4 km/h (2 Bft) 97,87 %
15.06.2021 07:02 17,1 C 17,2 C 15,0 C 90 % 1020,3 hPa 0,0 l/m 0 min 0 min 75 W/m 6,4 km/h (2 Bft) 97,87 %
15.06.2021 07:04 17,1 C 17,2 C 15,0 C 90 % 1020,3 hPa 0,0 l/m 0 min 0 min 77 W/m 9,7 km/h (2 Bft) 97,83 %
15.06.2021 07:06 17,2 C 17,2 C 15,0 C 90 % 1020,4 hPa 0,0 l/m 0 min 0 min 79 W/m 9,7 km/h (2 Bft) 97,87 %
15.06.2021 07:08 17,2 C 17,2 C 15,0 C 90 % 1020,4 hPa 0,0 l/m 0 min 0 min 82 W/m 9,7 km/h (2 Bft) 95,74 %
15.06.2021 07:10 17,2 C 17,2 C 15,0 C 90 % 1020,4 hPa 0,0 l/m 0 min 0 min 85 W/m 12,9 km/h (3 Bft) 100,00 %
15.06.2021 07:12 17,3 C 17,2 C 15,0 C 90 % 1020,4 hPa 0,0 l/m 0 min 0 min 88 W/m 22,5 km/h (4 Bft) 97,87 %
15.06.2021 07:14 17,3 C 17,2 C 15,0 C 89 % 1020,4 hPa 0,0 l/m 0 min 0 min 90 W/m 9,7 km/h (2 Bft) 100,00 %
15.06.2021 07:16 17,3 C 17,2 C 15,0 C 89 % 1020,4 hPa 0,0 l/m 0 min 0 min 92 W/m 12,9 km/h (3 Bft) 97,83 %
15.06.2021 07:18 17,3 C 17,2 C 15,0 C 89 % 1020,3 hPa 0,0 l/m 0 min 0 min 97 W/m 12,9 km/h (3 Bft) 100,00 %
15.06.2021 07:20 17,3 C 17,2 C 15,0 C 89 % 1020,3 hPa 0,0 l/m 0 min 0 min 98 W/m 9,7 km/h (2 Bft) 100,00 %
15.06.2021 07:22 17,3 C 17,2 C 15,0 C 89 % 1020,3 hPa 0,0 l/m 0 min 0 min 98 W/m 6,4 km/h (2 Bft) 100,00 %
15.06.2021 07:24 17,3 C 17,2 C 15,6 C 89 % 1020,3 hPa 0,0 l/m 0 min 0 min 100 W/m 3,2 km/h (1 Bft) 95,74 %
15.06.2021 07:26 17,4 C 17,2 C 15,6 C 89 % 1020,3 hPa 0,0 l/m 0 min 0 min 100 W/m 6,4 km/h (2 Bft) 100,00 %
15.06.2021 07:28 17,4 C 17,2 C 15,6 C 89 % 1020,3 hPa 0,0 l/m 0 min 0 min 101 W/m 12,9 km/h (3 Bft) 97,83 %
15.06.2021 07:30 17,4 C 17,2 C 15,6 C 89 % 1020,3 hPa 0,0 l/m 0 min 0 min 104 W/m 6,4 km/h (2 Bft) 100,00 %
15.06.2021 07:32 17,4 C 17,2 C 15,6 C 89 % 1020,3 hPa 0,0 l/m 0 min 0 min 105 W/m 6,4 km/h (2 Bft) 100,00 %
15.06.2021 07:34 17,4 C 17,2 C 15,6 C 89 % 1020,3 hPa 0,0 l/m 0 min 0 min 108 W/m 6,4 km/h (2 Bft) 100,00 %
15.06.2021 07:36 17,4 C 17,8 C 15,6 C 89 % 1020,3 hPa 0,0 l/m 0 min 0 min 111 W/m 6,4 km/h (2 Bft) 100,00 %
15.06.2021 07:38 17,4 C 17,8 C 15,6 C 89 % 1020,2 hPa 0,0 l/m 0 min 0 min 147 W/m 6,4 km/h (2 Bft) 100,00 %
15.06.2021 07:40 17,5 C 17,8 C 15,6 C 89 % 1020,3 hPa 0,0 l/m 2 min 0 min 195 W/m 6,4 km/h (2 Bft) 100,00 %
15.06.2021 07:42 17,5 C 17,8 C 15,6 C 89 % 1020,3 hPa 0,0 l/m 2 min 0 min 191 W/m 9,7 km/h (2 Bft) 100,00 %
15.06.2021 07:44 17,5 C 17,8 C 15,6 C 89 % 1020,4 hPa 0,0 l/m 2 min 0 min 211 W/m 6,4 km/h (2 Bft) 100,00 %
15.06.2021 07:46 17,5 C 17,8 C 15,6 C 89 % 1020,4 hPa 0,0 l/m 2 min 0 min 233 W/m 6,4 km/h (2 Bft) 91,67 %
15.06.2021 07:48 17,6 C 17,8 C 15,6 C 89 % 1020,4 hPa 0,0 l/m 2 min 0 min 257 W/m 3,2 km/h (1 Bft) 97,87 %
15.06.2021 07:50 17,6 C 17,8 C 15,6 C 89 % 1020,3 hPa 0,0 l/m 2 min 0 min 254 W/m 6,4 km/h (2 Bft) 89,13 %
15.06.2021 07:52 17,7 C 17,8 C 15,6 C 89 % 1020,3 hPa 0,0 l/m 2 min 0 min 239 W/m 9,7 km/h (2 Bft) 100,00 %
15.06.2021 07:54 17,8 C 18,3 C 15,6 C 89 % 1020,3 hPa 0,0 l/m 2 min 0 min 285 W/m 6,4 km/h (2 Bft) 95,74 %
15.06.2021 07:56 17,8 C 18,3 C 15,6 C 89 % 1020,2 hPa 0,0 l/m 2 min 0 min 284 W/m 3,2 km/h (1 Bft) 100,00 %
15.06.2021 07:58 17,9 C 18,3 C 16,1 C 89 % 1020,3 hPa 0,0 l/m 2 min 0 min 308 W/m 3,2 km/h (1 Bft) 100,00 %
15.06.2021 08:00 18,0 C 18,3 C 16,1 C 89 % 1020,3 hPa 0,0 l/m 2 min 0 min 313 W/m 6,4 km/h (2 Bft) 97,87 %
15.06.2021 08:02 18,0 C 18,9 C 16,1 C 89 % 1020,3 hPa 0,0 l/m 2 min 0 min 320 W/m 9,7 km/h (2 Bft) 95,65 %
15.06.2021 08:04 18,1 C 18,9 C 16,1 C 89 % 1020,4 hPa 0,0 l/m 2 min 0 min 331 W/m 9,7 km/h (2 Bft) 93,62 %
15.06.2021 08:06 18,1 C 18,9 C 16,1 C 88 % 1020,4 hPa 0,0 l/m 2 min 0 min 342 W/m 12,9 km/h (3 Bft) 95,74 %
15.06.2021 08:08 18,3 C 18,9 C 16,1 C 88 % 1020,5 hPa 0,0 l/m 2 min 0 min 353 W/m 12,9 km/h (3 Bft) 97,87 %
15.06.2021 08:10 18,4 C 19,4 C 16,1 C 88 % 1020,5 hPa 0,0 l/m 2 min 0 min 365 W/m 6,4 km/h (2 Bft) 100,00 %
15.06.2021 08:12 18,5 C 20,0 C 16,7 C 87 % 1020,5 hPa 0,0 l/m 2 min 0 min 366 W/m 6,4 km/h (2 Bft) 100,00 %
15.06.2021 08:14 18,7 C 20,6 C 16,7 C 87 % 1020,5 hPa 0,0 l/m 2 min 0 min 315 W/m 9,7 km/h (2 Bft) 97,83 %
15.06.2021 08:16 18,9 C 20,6 C 16,7 C 86 % 1020,6 hPa 0,0 l/m 2 min 0 min 298 W/m 3,2 km/h (1 Bft) 100,00 %
15.06.2021 08:18 19,0 C 21,1 C 17,3 C 86 % 1020,6 hPa 0,0 l/m 2 min 0 min 321 W/m 9,7 km/h (2 Bft) 97,87 %
15.06.2021 08:20 19,1 C 21,1 C 17,3 C 85 % 1020,6 hPa 0,0 l/m 2 min 0 min 319 W/m 12,9 km/h (3 Bft) 97,87 %
15.06.2021 08:22 19,3 C 21,7 C 17,8 C 85 % 1020,6 hPa 0,0 l/m 2 min 0 min 362 W/m 6,4 km/h (2 Bft) 95,74 %
15.06.2021 08:24 19,4 C 21,7 C 17,8 C 84 % 1020,6 hPa 0,0 l/m 2 min 0 min 362 W/m 9,7 km/h (2 Bft) 91,49 %
15.06.2021 08:26 19,5 C 21,7 C 18,4 C 84 % 1020,6 hPa 0,0 l/m 2 min 0 min 322 W/m 12,9 km/h (3 Bft) 97,83 %
15.06.2021 08:28 19,7 C 22,2 C 18,4 C 83 % 1020,6 hPa 0,0 l/m 2 min 0 min 354 W/m 9,7 km/h (2 Bft) 97,87 %
15.06.2021 08:30 19,9 C 22,2 C 18,9 C 82 % 1020,6 hPa 0,0 l/m 2 min 0 min 421 W/m 9,7 km/h (2 Bft) 95,74 %
15.06.2021 08:32 20,0 C 22,2 C 18,9 C 82 % 1020,6 hPa 0,0 l/m 2 min 0 min 380 W/m 9,7 km/h (2 Bft) 97,87 %
15.06.2021 08:34 20,1 C 22,8 C 18,9 C 81 % 1020,7 hPa 0,0 l/m 2 min 0 min 317 W/m 16,1 km/h (3 Bft) 97,87 %
15.06.2021 08:36 20,3 C 22,8 C 18,9 C 80 % 1020,7 hPa 0,0 l/m 2 min 0 min 329 W/m 9,7 km/h (2 Bft) 97,87 %
15.06.2021 08:38 20,3 C 22,8 C 19,5 C 80 % 1020,7 hPa 0,0 l/m 2 min 0 min 408 W/m 9,7 km/h (2 Bft) 97,83 %
15.06.2021 08:40 20,4 C 22,8 C 19,5 C 79 % 1020,8 hPa 0,0 l/m 2 min 0 min 425 W/m 12,9 km/h (3 Bft) 97,87 %
15.06.2021 08:42 20,3 C 22,2 C 19,5 C 79 % 1020,7 hPa 0,0 l/m 2 min 0 min 430 W/m 9,7 km/h (2 Bft) 97,87 %
15.06.2021 08:44 20,4 C 23,3 C 19,5 C 80 % 1020,7 hPa 0,0 l/m 2 min 0 min 437 W/m 9,7 km/h (2 Bft) 97,87 %
15.06.2021 08:46 20,5 C 23,9 C 19,5 C 79 % 1020,7 hPa 0,0 l/m 2 min 0 min 440 W/m 6,4 km/h (2 Bft) 97,87 %
15.06.2021 08:47 20,6 C 24,4 C 20,0 C 79 % 1020,8 hPa 0,0 l/m 1 min 0 min 444 W/m 12,9 km/h (3 Bft) 97,87 %
15.06.2021 08:50 20,7 C 25,0 C 20,0 C 79 % 1020,8 hPa 0,0 l/m 3 min 0 min 447 W/m 12,9 km/h (3 Bft) 95,65 %
15.06.2021 08:52 20,9 C 25,0 C 20,0 C 78 % 1020,8 hPa 0,0 l/m 2 min 0 min 454 W/m 12,9 km/h (3 Bft) 97,87 %
15.06.2021 08:54 20,9 C 25,0 C 20,0 C 78 % 1020,8 hPa 0,0 l/m 2 min 0 min 464 W/m 16,1 km/h (3 Bft) 97,87 %
15.06.2021 08:56 21,0 C 25,0 C 20,6 C 77 % 1020,8 hPa 0,0 l/m 2 min 0 min 466 W/m 9,7 km/h (2 Bft) 93,62 %
15.06.2021 08:58 21,1 C 25,0 C 20,6 C 77 % 1020,8 hPa 0,0 l/m 2 min 0 min 473 W/m 9,7 km/h (2 Bft) 95,74 %
15.06.2021 09:00 21,3 C 25,0 C 20,6 C 77 % 1020,8 hPa 0,0 l/m 2 min 0 min 480 W/m 9,7 km/h (2 Bft) 93,62 %
15.06.2021 09:02 21,3 C 25,6 C 20,6 C 76 % 1020,8 hPa 0,0 l/m 2 min 0 min 483 W/m 6,4 km/h (2 Bft) 93,48 %
15.06.2021 09:04 21,4 C 26,1 C 20,6 C 77 % 1020,8 hPa 0,0 l/m 2 min 0 min 490 W/m 6,4 km/h (2 Bft) 95,74 %
15.06.2021 09:06 21,5 C 26,1 C 21,1 C 76 % 1020,8 hPa 0,0 l/m 2 min 0 min 498 W/m 9,7 km/h (2 Bft) 95,74 %
15.06.2021 09:08 21,6 C 26,1 C 21,1 C 76 % 1020,9 hPa 0,0 l/m 2 min 0 min 499 W/m 9,7 km/h (2 Bft) 93,62 %
15.06.2021 09:10 21,7 C 26,1 C 21,1 C 75 % 1020,9 hPa 0,0 l/m 2 min 0 min 504 W/m 16,1 km/h (3 Bft) 95,74 %
15.06.2021 09:12 21,8 C 26,7 C 21,1 C 75 % 1020,9 hPa 0,0 l/m 2 min 0 min 511 W/m 9,7 km/h (2 Bft) 95,74 %
15.06.2021 09:14 21,8 C 26,7 C 21,1 C 74 % 1020,8 hPa 0,0 l/m 2 min 0 min 514 W/m 12,9 km/h (3 Bft) 95,65 %
15.06.2021 09:16 21,9 C 26,1 C 21,1 C 74 % 1020,8 hPa 0,0 l/m 2 min 0 min 520 W/m 9,7 km/h (2 Bft) 95,74 %
15.06.2021 09:18 22,0 C 27,2 C 21,1 C 74 % 1020,8 hPa 0,0 l/m 2 min 0 min 526 W/m 6,4 km/h (2 Bft) 95,74 %
15.06.2021 09:20 22,0 C 26,7 C 21,1 C 74 % 1020,8 hPa 0,0 l/m 2 min 0 min 534 W/m 16,1 km/h (3 Bft) 93,62 %
15.06.2021 09:22 22,1 C 27,2 C 21,7 C 74 % 1020,8 hPa 0,0 l/m 2 min 0 min 539 W/m 9,7 km/h (2 Bft) 93,62 %
15.06.2021 09:24 22,2 C 27,8 C 22,3 C 73 % 1020,8 hPa 0,0 l/m 2 min 0 min 541 W/m 6,4 km/h (2 Bft) 93,62 %
15.06.2021 09:26 22,2 C 27,2 C 22,3 C 73 % 1020,8 hPa 0,0 l/m 2 min 0 min 548 W/m 12,9 km/h (3 Bft) 91,30 %
15.06.2021 09:28 22,3 C 27,8 C 22,3 C 73 % 1020,8 hPa 0,0 l/m 2 min 0 min 555 W/m 6,4 km/h (2 Bft) 91,49 %
15.06.2021 09:30 22,5 C 28,3 C 22,8 C 73 % 1020,8 hPa 0,0 l/m 2 min 0 min 560 W/m 6,4 km/h (2 Bft) 93,62 %
15.06.2021 09:32 22,6 C 28,3 C 23,4 C 72 % 1020,9 hPa 0,0 l/m 2 min 0 min 559 W/m 6,4 km/h (2 Bft) 93,62 %
15.06.2021 09:34 22,7 C 28,9 C 23,4 C 72 % 1020,8 hPa 0,0 l/m 2 min 0 min 568 W/m 6,4 km/h (2 Bft) 93,62 %
15.06.2021 09:36 22,8 C 27,8 C 23,4 C 72 % 1020,9 hPa 0,0 l/m 2 min 0 min 576 W/m 12,9 km/h (3 Bft) 95,74 %
15.06.2021 09:38 22,8 C 27,8 C 23,4 C 72 % 1020,9 hPa 0,0 l/m 2 min 0 min 581 W/m 16,1 km/h (3 Bft) 95,74 %
15.06.2021 09:40 22,9 C 27,8 C 23,9 C 71 % 1020,9 hPa 0,0 l/m 2 min 0 min 584 W/m 9,7 km/h (2 Bft) 95,74 %
15.06.2021 09:42 23,0 C 27,8 C 23,9 C 71 % 1020,9 hPa 0,0 l/m 2 min 0 min 591 W/m 12,9 km/h (3 Bft) 97,87 %
15.06.2021 09:44 23,0 C 27,2 C 23,4 C 70 % 1020,9 hPa 0,0 l/m 2 min 0 min 592 W/m 16,1 km/h (3 Bft) 97,87 %
15.06.2021 09:46 23,0 C 27,2 C 23,9 C 70 % 1020,9 hPa 0,0 l/m 2 min 0 min 595 W/m 16,1 km/h (3 Bft) 95,74 %
15.06.2021 09:48 23,0 C 26,1 C 23,4 C 69 % 1020,9 hPa 0,0 l/m 2 min 0 min 594 W/m 9,7 km/h (2 Bft) 95,65 %
15.06.2021 09:50 22,9 C 26,7 C 23,9 C 70 % 1021,0 hPa 0,0 l/m 2 min 0 min 600 W/m 16,1 km/h (3 Bft) 97,87 %
15.06.2021 09:52 23,0 C 27,2 C 23,9 C 70 % 1021,0 hPa 0,0 l/m 2 min 0 min 605 W/m 12,9 km/h (3 Bft) 97,87 %
15.06.2021 09:54 23,0 C 27,2 C 24,5 C 70 % 1020,9 hPa 0,0 l/m 2 min 0 min 618 W/m 16,1 km/h (3 Bft) 95,74 %
15.06.2021 09:56 23,1 C 27,2 C 24,5 C 70 % 1021,0 hPa 0,0 l/m 2 min 0 min 637 W/m 16,1 km/h (3 Bft) 97,87 %
15.06.2021 09:58 23,1 C 26,7 C 24,5 C 69 % 1021,0 hPa 0,0 l/m 2 min 0 min 636 W/m 12,9 km/h (3 Bft) 95,74 %
15.06.2021 10:00 23,1 C 27,2 C 24,5 C 69 % 1021,0 hPa 0,0 l/m 2 min 0 min 636 W/m 6,4 km/h (2 Bft) 97,83 %
15.06.2021 10:02 23,3 C 27,8 C 25,0 C 70 % 1021,0 hPa 0,0 l/m 2 min 0 min 652 W/m 16,1 km/h (3 Bft) 94,44 %
15.06.2021 10:04 23,4 C 27,2 C 25,0 C 69 % 1021,0 hPa 0,0 l/m 2 min 0 min 658 W/m 12,9 km/h (3 Bft) 98,28 %
15.06.2021 10:06 23,3 C 26,1 C 25,6 C 67 % 1021,0 hPa 0,0 l/m 2 min 0 min 675 W/m 12,9 km/h (3 Bft) 97,87 %
15.06.2021 10:08 23,1 C 26,1 C 25,6 C 68 % 1021,0 hPa 0,0 l/m 2 min 0 min 680 W/m 12,9 km/h (3 Bft) 91,89 %
15.06.2021 10:10 23,2 C 26,7 C 25,0 C 68 % 1020,9 hPa 0,0 l/m 2 min 0 min 691 W/m 12,9 km/h (3 Bft) 97,87 %
15.06.2021 10:12 23,3 C 27,2 C 25,0 C 69 % 1020,9 hPa 0,0 l/m 2 min 0 min 625 W/m 9,7 km/h (2 Bft) 97,87 %
15.06.2021 10:14 23,3 C 26,1 C 25,6 C 68 % 1021,0 hPa 0,0 l/m 2 min 0 min 579 W/m 12,9 km/h (3 Bft) 100,00 %
15.06.2021 10:16 23,3 C 26,1 C 26,7 C 68 % 1020,9 hPa 0,0 l/m 2 min 0 min 704 W/m 9,7 km/h (2 Bft) 100,00 %
15.06.2021 10:18 23,4 C 26,1 C 26,1 C 68 % 1020,8 hPa 0,0 l/m 2 min 0 min 718 W/m 6,4 km/h (2 Bft) 100,00 %
15.06.2021 10:20 23,5 C 26,7 C 26,7 C 67 % 1020,8 hPa 0,0 l/m 2 min 0 min 735 W/m 12,9 km/h (3 Bft) 100,00 %
15.06.2021 10:22 23,5 C 26,7 C 26,7 C 68 % 1020,9 hPa 0,0 l/m 2 min 0 min 740 W/m 6,4 km/h (2 Bft) 97,87 %
15.06.2021 10:24 23,7 C 27,8 C 26,7 C 68 % 1020,8 hPa 0,0 l/m 2 min 0 min 795 W/m 9,7 km/h (2 Bft) 100,00 %
15.06.2021 10:26 23,8 C 27,2 C 27,3 C 67 % 1020,9 hPa 0,0 l/m 2 min 0 min 817 W/m 9,7 km/h (2 Bft) 100,00 %
15.06.2021 10:28 23,8 C 27,2 C 26,7 C 67 % 1020,8 hPa 0,0 l/m 2 min 0 min 877 W/m 16,1 km/h (3 Bft) 100,00 %
15.06.2021 10:30 23,9 C 27,2 C 26,1 C 67 % 1020,8 hPa 0,0 l/m 2 min 0 min 877 W/m 12,9 km/h (3 Bft) 100,00 %
15.06.2021 10:32 23,9 C 26,7 C 25,0 C 66 % 1020,8 hPa 0,0 l/m 2 min 0 min 488 W/m 9,7 km/h (2 Bft) 97,87 %
15.06.2021 10:34 23,8 C 25,6 C 24,5 C 65 % 1020,8 hPa 0,0 l/m 0 min 0 min 360 W/m 9,7 km/h (2 Bft) 100,00 %
15.06.2021 10:36 23,8 C 25,0 C 23,9 C 66 % 1020,8 hPa 0,0 l/m 0 min 0 min 360 W/m 12,9 km/h (3 Bft) 100,00 %
15.06.2021 10:38 23,6 C 25,0 C 23,4 C 66 % 1020,8 hPa 0,0 l/m 2 min 0 min 389 W/m 12,9 km/h (3 Bft) 100,00 %
15.06.2021 10:40 23,6 C 24,4 C 23,4 C 66 % 1020,8 hPa 0,0 l/m 2 min 0 min 411 W/m 12,9 km/h (3 Bft) 100,00 %
15.06.2021 10:42 23,6 C 25,0 C 24,5 C 66 % 1020,8 hPa 0,0 l/m 2 min 0 min 376 W/m 12,9 km/h (3 Bft) 100,00 %
15.06.2021 10:44 23,5 C 24,4 C 24,5 C 66 % 1020,8 hPa 0,0 l/m 2 min 0 min 787 W/m 12,9 km/h (3 Bft) 100,00 %
15.06.2021 10:46 23,5 C 25,0 C 25,6 C 66 % 1020,8 hPa 0,0 l/m 2 min 0 min 809 W/m 12,9 km/h (3 Bft) 97,87 %
15.06.2021 10:48 23,5 C 25,0 C 26,1 C 66 % 1020,8 hPa 0,0 l/m 2 min 0 min 788 W/m 16,1 km/h (3 Bft) 100,00 %
15.06.2021 10:50 23,6 C 26,1 C 26,1 C 66 % 1020,8 hPa 0,0 l/m 2 min 0 min 796 W/m 12,9 km/h (3 Bft) 100,00 %
15.06.2021 10:52 23,6 C 26,1 C 26,7 C 67 % 1020,7 hPa 0,0 l/m 2 min 0 min 768 W/m 9,7 km/h (2 Bft) 100,00 %
15.06.2021 10:54 23,7 C 26,1 C 26,7 C 66 % 1020,7 hPa 0,0 l/m 2 min 0 min 742 W/m 16,1 km/h (3 Bft) 100,00 %
15.06.2021 10:56 23,7 C 25,6 C 27,3 C 65 % 1020,8 hPa 0,0 l/m 2 min 0 min 772 W/m 12,9 km/h (3 Bft) 100,00 %
15.06.2021 10:58 23,5 C 25,0 C 27,3 C 65 % 1020,7 hPa 0,0 l/m 2 min 0 min 762 W/m 9,7 km/h (2 Bft) 100,00 %
15.06.2021 11:00 23,5 C 26,1 C 27,3 C 66 % 1020,7 hPa 0,0 l/m 2 min 0 min 790 W/m 9,7 km/h (2 Bft) 100,00 %
15.06.2021 11:02 23,6 C 26,1 C 27,3 C 66 % 1020,7 hPa 0,0 l/m 2 min 0 min 796 W/m 12,9 km/h (3 Bft) 100,00 %
15.06.2021 11:04 23,7 C 26,7 C 26,7 C 66 % 1020,7 hPa 0,0 l/m 2 min 0 min 800 W/m 12,9 km/h (3 Bft) 100,00 %
15.06.2021 11:06 23,8 C 27,2 C 26,1 C 66 % 1020,7 hPa 0,0 l/m 2 min 0 min 820 W/m 16,1 km/h (3 Bft) 100,00 %
15.06.2021 11:08 23,8 C 26,7 C 26,1 C 65 % 1020,7 hPa 0,0 l/m 2 min 0 min 746 W/m 16,1 km/h (3 Bft) 100,00 %
15.06.2021 11:10 23,9 C 26,7 C 26,1 C 65 % 1020,7 hPa 0,0 l/m 2 min 0 min 745 W/m 16,1 km/h (3 Bft) 100,00 %
15.06.2021 11:12 23,9 C 26,1 C 25,0 C 64 % 1020,7 hPa 0,0 l/m 2 min 0 min 630 W/m 16,1 km/h (3 Bft) 100,00 %
15.06.2021 11:14 23,9 C 25,6 C 24,5 C 64 % 1020,7 hPa 0,0 l/m 2 min 0 min 575 W/m 12,9 km/h (3 Bft) 97,87 %
15.06.2021 11:16 23,8 C 25,6 C 24,5 C 64 % 1020,8 hPa 0,0 l/m 2 min 0 min 562 W/m 16,1 km/h (3 Bft) 100,00 %
15.06.2021 11:18 23,8 C 25,6 C 23,9 C 65 % 1020,8 hPa 0,0 l/m 2 min 0 min 524 W/m 6,4 km/h (2 Bft) 100,00 %
15.06.2021 11:20 23,9 C 26,1 C 23,9 C 64 % 1020,8 hPa 0,0 l/m 2 min 0 min 562 W/m 12,9 km/h (3 Bft) 97,87 %
15.06.2021 11:22 23,9 C 26,1 C 23,9 C 64 % 1020,8 hPa 0,0 l/m 2 min 0 min 707 W/m 9,7 km/h (2 Bft) 97,87 %
15.06.2021 11:24 23,9 C 26,1 C 23,9 C 64 % 1020,8 hPa 0,0 l/m 2 min 0 min 608 W/m 12,9 km/h (3 Bft) 100,00 %
15.06.2021 11:26 24,0 C 26,7 C 24,5 C 64 % 1020,8 hPa 0,0 l/m 2 min 0 min 718 W/m 12,9 km/h (3 Bft) 100,00 %
15.06.2021 11:28 24,0 C 27,2 C 25,6 C 65 % 1020,8 hPa 0,0 l/m 2 min 0 min 799 W/m 6,4 km/h (2 Bft) 100,00 %
15.06.2021 11:30 24,1 C 27,2 C 25,6 C 64 % 1020,8 hPa 0,0 l/m 2 min 0 min 789 W/m 16,1 km/h (3 Bft) 93,62 %
15.06.2021 11:32 24,2 C 27,2 C 24,5 C 64 % 1020,7 hPa 0,0 l/m 2 min 0 min 784 W/m 12,9 km/h (3 Bft) 85,11 %
15.06.2021 11:34 24,3 C 27,8 C 23,9 C 63 % 1020,8 hPa 0,0 l/m 2 min 0 min 801 W/m 16,1 km/h (3 Bft) 87,23 %
15.06.2021 11:36 24,4 C 27,2 C 23,9 C 63 % 1020,8 hPa 0,0 l/m 2 min 0 min 823 W/m 16,1 km/h (3 Bft) 89,36 %
15.06.2021 11:38 24,4 C 27,2 C 23,9 C 63 % 1020,8 hPa 0,0 l/m 2 min 0 min 828 W/m 6,4 km/h (2 Bft) 82,98 %
15.06.2021 11:40 24,4 C 27,2 C 23,9 C 62 % 1020,7 hPa 0,0 l/m 2 min 0 min 818 W/m 16,1 km/h (3 Bft) 78,26 %
15.06.2021 11:42 24,3 C 27,2 C 23,9 C 62 % 1020,7 hPa 0,0 l/m 2 min 0 min 823 W/m 12,9 km/h (3 Bft) 89,36 %
15.06.2021 11:44 24,4 C 27,2 C 25,0 C 62 % 1020,7 hPa 0,0 l/m 2 min 0 min 844 W/m 25,7 km/h (4 Bft) 80,85 %
15.06.2021 11:46 24,4 C 26,7 C 25,6 C 62 % 1020,7 hPa 0,0 l/m 2 min 0 min 823 W/m 16,1 km/h (3 Bft) 91,49 %
15.06.2021 11:48 24,5 C 27,2 C 27,3 C 63 % 1020,7 hPa 0,0 l/m 2 min 0 min 818 W/m 12,9 km/h (3 Bft) 95,74 %
15.06.2021 11:50 24,5 C 27,2 C 27,8 C 62 % 1020,7 hPa 0,0 l/m 2 min 0 min 815 W/m 12,9 km/h (3 Bft) 95,74 %
15.06.2021 11:52 24,5 C 27,2 C 27,8 C 63 % 1020,8 hPa 0,0 l/m 2 min 0 min 825 W/m 16,1 km/h (3 Bft) 97,83 %
15.06.2021 11:54 24,5 C 27,8 C 27,8 C 63 % 1020,8 hPa 0,0 l/m 2 min 0 min 818 W/m 19,3 km/h (3 Bft) 97,87 %
15.06.2021 11:56 24,5 C 27,8 C 28,4 C 62 % 1020,8 hPa 0,0 l/m 2 min 0 min 808 W/m 19,3 km/h (3 Bft) 95,74 %
15.06.2021 11:58 24,6 C 27,2 C 28,4 C 60 % 1020,8 hPa 0,0 l/m 2 min 0 min 786 W/m 12,9 km/h (3 Bft) 97,87 %
15.06.2021 12:00 24,5 C 26,7 C 28,4 C 58 % 1020,8 hPa 0,0 l/m 2 min 0 min 807 W/m 12,9 km/h (3 Bft) 97,87 %
15.06.2021 12:02 24,4 C 27,2 C 28,9 C 59 % 1020,8 hPa 0,0 l/m 2 min 0 min 810 W/m 12,9 km/h (3 Bft) 97,87 %
15.06.2021 12:04 24,4 C 27,2 C 30,0 C 60 % 1020,8 hPa 0,0 l/m 2 min 0 min 873 W/m 9,7 km/h (2 Bft) 97,83 %
15.06.2021 12:08 24,6 C 27,2 C 30,0 C 59 % 1020,8 hPa 0,0 l/m 4 min 0 min 817 W/m 19,3 km/h (3 Bft) 94,68 %
15.06.2021 12:10 24,6 C 27,2 C 30,0 C 58 % 1020,9 hPa 0,0 l/m 2 min 0 min 802 W/m 9,7 km/h (2 Bft) 97,87 %
15.06.2021 12:12 24,6 C 27,2 C 30,0 C 58 % 1020,8 hPa 0,0 l/m 2 min 0 min 785 W/m 9,7 km/h (2 Bft) 97,87 %
15.06.2021 12:14 24,8 C 27,2 C 29,5 C 58 % 1020,8 hPa 0,0 l/m 2 min 0 min 813 W/m 12,9 km/h (3 Bft) 97,87 %
15.06.2021 12:16 24,8 C 27,2 C 29,5 C 58 % 1020,8 hPa 0,0 l/m 2 min 0 min 814 W/m 16,1 km/h (3 Bft) 95,65 %
15.06.2021 12:18 24,9 C 27,2 C 30,0 C 57 % 1020,8 hPa 0,0 l/m 2 min 0 min 836 W/m 19,3 km/h (3 Bft) 97,87 %
15.06.2021 12:20 24,9 C 27,2 C 30,0 C 58 % 1020,8 hPa 0,0 l/m 2 min 0 min 859 W/m 12,9 km/h (3 Bft) 93,62 %
15.06.2021 12:22 24,9 C 27,2 C 30,0 C 57 % 1020,8 hPa 0,0 l/m 2 min 0 min 897 W/m 16,1 km/h (3 Bft) 97,87 %
15.06.2021 12:24 25,0 C 27,8 C 31,1 C 57 % 1020,8 hPa 0,0 l/m 2 min 0 min 942 W/m 9,7 km/h (2 Bft) 97,87 %
15.06.2021 12:26 25,1 C 27,8 C 30,6 C 58 % 1020,8 hPa 0,0 l/m 2 min 0 min 905 W/m 9,7 km/h (2 Bft) 95,74 %
15.06.2021 12:28 25,1 C 27,8 C 30,6 C 58 % 1020,8 hPa 0,0 l/m 2 min 0 min 891 W/m 16,1 km/h (3 Bft) 97,83 %
15.06.2021 12:30 25,1 C 27,8 C 31,1 C 59 % 1020,8 hPa 0,0 l/m 2 min 0 min 858 W/m 16,1 km/h (3 Bft) 95,74 %
15.06.2021 12:32 25,1 C 27,2 C 30,0 C 58 % 1020,8 hPa 0,0 l/m 2 min 0 min 801 W/m 25,7 km/h (4 Bft) 95,74 %
15.06.2021 12:34 25,2 C 27,8 C 29,5 C 57 % 1020,8 hPa 0,0 l/m 2 min 0 min 824 W/m 19,3 km/h (3 Bft) 95,74 %
15.06.2021 12:36 25,2 C 27,8 C 29,5 C 58 % 1020,8 hPa 0,0 l/m 2 min 0 min 748 W/m 16,1 km/h (3 Bft) 93,62 %
15.06.2021 12:38 25,2 C 26,7 C 29,5 C 55 % 1020,7 hPa 0,0 l/m 2 min 0 min 769 W/m 22,5 km/h (4 Bft) 95,74 %
15.06.2021 12:40 25,1 C 26,7 C 30,0 C 56 % 1020,7 hPa 0,0 l/m 2 min 0 min 795 W/m 19,3 km/h (3 Bft) 95,65 %
15.06.2021 12:42 25,1 C 26,7 C 30,6 C 56 % 1020,7 hPa 0,0 l/m 2 min 0 min 804 W/m 12,9 km/h (3 Bft) 95,74 %
15.06.2021 12:44 25,1 C 26,7 C 31,1 C 56 % 1020,7 hPa 0,0 l/m 2 min 0 min 837 W/m 12,9 km/h (3 Bft) 95,74 %
15.06.2021 12:46 25,1 C 26,7 C 31,1 C 56 % 1020,7 hPa 0,0 l/m 2 min 0 min 900 W/m 12,9 km/h (3 Bft) 95,74 %
15.06.2021 12:48 25,1 C 26,7 C 31,1 C 56 % 1020,7 hPa 0,0 l/m 2 min 0 min 917 W/m 25,7 km/h (4 Bft) 95,74 %
15.06.2021 12:50 25,2 C 26,7 C 30,6 C 55 % 1020,7 hPa 0,0 l/m 2 min 0 min 885 W/m 16,1 km/h (3 Bft) 93,62 %
15.06.2021 12:52 25,2 C 26,1 C 30,6 C 55 % 1020,6 hPa 0,0 l/m 2 min 0 min 887 W/m 22,5 km/h (4 Bft) 95,65 %
15.06.2021 12:54 25,2 C 26,7 C 31,7 C 56 % 1020,7 hPa 0,0 l/m 2 min 0 min 951 W/m 19,3 km/h (3 Bft) 95,74 %
15.06.2021 12:56 25,3 C 27,2 C 32,8 C 57 % 1020,7 hPa 0,0 l/m 2 min 0 min 974 W/m 12,9 km/h (3 Bft) 91,49 %
15.06.2021 12:58 25,4 C 27,2 C 31,7 C 56 % 1020,6 hPa 0,0 l/m 2 min 0 min 909 W/m 22,5 km/h (4 Bft) 95,74 %
15.06.2021 13:00 25,4 C 27,8 C 31,1 C 56 % 1020,7 hPa 0,0 l/m 2 min 0 min 932 W/m 16,1 km/h (3 Bft) 95,74 %
15.06.2021 13:02 25,5 C 27,8 C 32,3 C 55 % 1020,7 hPa 0,0 l/m 2 min 0 min 962 W/m 16,1 km/h (3 Bft) 93,62 %
15.06.2021 13:04 25,6 C 27,8 C 31,7 C 54 % 1020,7 hPa 0,0 l/m 2 min 0 min 931 W/m 16,1 km/h (3 Bft) 95,65 %
15.06.2021 13:06 25,6 C 27,8 C 31,7 C 54 % 1020,6 hPa 0,0 l/m 2 min 0 min 897 W/m 16,1 km/h (3 Bft) 95,74 %
15.06.2021 13:08 25,6 C 27,2 C 32,3 C 53 % 1020,6 hPa 0,0 l/m 2 min 0 min 891 W/m 16,1 km/h (3 Bft) 97,87 %
15.06.2021 13:10 25,7 C 27,2 C 32,3 C 54 % 1020,6 hPa 0,0 l/m 2 min 0 min 887 W/m 16,1 km/h (3 Bft) 97,87 %
15.06.2021 13:12 25,7 C 27,2 C 32,3 C 54 % 1020,5 hPa 0,0 l/m 2 min 0 min 893 W/m 16,1 km/h (3 Bft) 97,87 %
15.06.2021 13:14 25,6 C 27,2 C 31,7 C 54 % 1020,6 hPa 0,0 l/m 2 min 0 min 911 W/m 25,7 km/h (4 Bft) 100,00 %
15.06.2021 13:16 25,6 C 26,7 C 31,1 C 55 % 1020,6 hPa 0,0 l/m 2 min 0 min 873 W/m 16,1 km/h (3 Bft) 97,87 %
15.06.2021 13:18 25,5 C 27,2 C 30,6 C 55 % 1020,6 hPa 0,0 l/m 2 min 0 min 811 W/m 19,3 km/h (3 Bft) 97,87 %
15.06.2021 13:20 25,5 C 27,2 C 30,6 C 54 % 1020,6 hPa 0,0 l/m 2 min 0 min 797 W/m 19,3 km/h (3 Bft) 97,87 %
15.06.2021 13:22 25,5 C 26,7 C 31,1 C 54 % 1020,6 hPa 0,0 l/m 2 min 0 min 887 W/m 25,7 km/h (4 Bft) 97,87 %
15.06.2021 13:24 25,5 C 27,2 C 32,3 C 55 % 1020,6 hPa 0,0 l/m 2 min 0 min 903 W/m 19,3 km/h (3 Bft) 100,00 %
15.06.2021 13:26 25,6 C 27,8 C 31,1 C 55 % 1020,6 hPa 0,0 l/m 2 min 0 min 909 W/m 22,5 km/h (4 Bft) 97,87 %
15.06.2021 13:28 25,5 C 27,8 C 30,6 C 56 % 1020,6 hPa 0,0 l/m 2 min 0 min 921 W/m 19,3 km/h (3 Bft) 97,83 %
15.06.2021 13:30 25,5 C 27,8 C 30,6 C 56 % 1020,6 hPa 0,0 l/m 2 min 0 min 884 W/m 22,5 km/h (4 Bft) 97,87 %
15.06.2021 13:32 25,5 C 27,8 C 31,7 C 57 % 1020,6 hPa 0,0 l/m 2 min 0 min 923 W/m 12,9 km/h (3 Bft) 97,87 %
15.06.2021 13:34 25,5 C 27,8 C 32,3 C 56 % 1020,6 hPa 0,0 l/m 2 min 0 min 929 W/m 22,5 km/h (4 Bft) 100,00 %
15.06.2021 13:36 25,5 C 28,3 C 31,7 C 56 % 1020,6 hPa 0,0 l/m 2 min 0 min 945 W/m 22,5 km/h (4 Bft) 97,87 %
15.06.2021 13:38 25,6 C 28,3 C 32,3 C 54 % 1020,6 hPa 0,0 l/m 2 min 0 min 899 W/m 12,9 km/h (3 Bft) 100,00 %
15.06.2021 13:40 25,6 C 27,8 C 32,3 C 55 % 1020,5 hPa 0,0 l/m 2 min 0 min 919 W/m 19,3 km/h (3 Bft) 97,87 %
15.06.2021 13:42 25,6 C 28,3 C 32,3 C 55 % 1020,5 hPa 0,0 l/m 2 min 0 min 935 W/m 22,5 km/h (4 Bft) 100,00 %
15.06.2021 13:44 25,8 C 28,9 C 32,8 C 56 % 1020,4 hPa 0,0 l/m 2 min 0 min 939 W/m 12,9 km/h (3 Bft) 100,00 %
15.06.2021 13:46 25,8 C 28,9 C 32,3 C 55 % 1020,4 hPa 0,0 l/m 2 min 0 min 956 W/m 22,5 km/h (4 Bft) 100,00 %
15.06.2021 13:48 25,9 C 28,9 C 31,7 C 56 % 1020,4 hPa 0,0 l/m 2 min 0 min 948 W/m 22,5 km/h (4 Bft) 100,00 %
15.06.2021 13:50 26,0 C 28,9 C 32,8 C 55 % 1020,4 hPa 0,0 l/m 2 min 0 min 913 W/m 9,7 km/h (2 Bft) 100,00 %
15.06.2021 13:52 26,0 C 28,9 C 32,3 C 55 % 1020,4 hPa 0,0 l/m 2 min 0 min 971 W/m 19,3 km/h (3 Bft) 100,00 %
15.06.2021 13:54 26,0 C 28,3 C 30,6 C 54 % 1020,5 hPa 0,0 l/m 2 min 0 min 1016 W/m 16,1 km/h (3 Bft) 100,00 %
15.06.2021 13:56 26,1 C 29,4 C 29,5 C 55 % 1020,5 hPa 0,0 l/m 2 min 0 min 1044 W/m 12,9 km/h (3 Bft) 100,00 %
15.06.2021 13:58 26,2 C 29,4 C 28,4 C 56 % 1020,5 hPa 0,0 l/m 2 min 0 min 1076 W/m 19,3 km/h (3 Bft) 100,00 %
15.06.2021 14:00 26,3 C 28,9 C 27,3 C 55 % 1020,5 hPa 0,0 l/m 2 min 0 min 1076 W/m 25,7 km/h (4 Bft) 97,87 %
15.06.2021 14:02 26,3 C 28,9 C 26,7 C 55 % 1020,4 hPa 0,0 l/m 2 min 0 min 1036 W/m 19,3 km/h (3 Bft) 97,83 %
15.06.2021 14:04 26,3 C 28,9 C 26,1 C 54 % 1020,5 hPa 0,0 l/m 2 min 0 min 949 W/m 16,1 km/h (3 Bft) 97,87 %
15.06.2021 14:06 26,1 C 28,3 C 26,1 C 54 % 1020,4 hPa 0,0 l/m 2 min 0 min 726 W/m 12,9 km/h (3 Bft) 95,74 %
15.06.2021 14:08 26,1 C 28,3 C 26,1 C 54 % 1020,4 hPa 0,0 l/m 2 min 0 min 788 W/m 16,1 km/h (3 Bft) 97,87 %
15.06.2021 14:10 26,1 C 28,3 C 26,1 C 55 % 1020,4 hPa 0,0 l/m 2 min 0 min 905 W/m 12,9 km/h (3 Bft) 97,87 %
15.06.2021 14:12 26,1 C 28,9 C 26,1 C 55 % 1020,4 hPa 0,0 l/m 2 min 0 min 898 W/m 16,1 km/h (3 Bft) 95,74 %
15.06.2021 14:14 26,1 C 28,9 C 26,1 C 56 % 1020,4 hPa 0,0 l/m 2 min 0 min 840 W/m 12,9 km/h (3 Bft) 95,65 %
15.06.2021 14:16 26,3 C 29,4 C 25,6 C 55 % 1020,4 hPa 0,0 l/m 2 min 0 min 995 W/m 25,7 km/h (4 Bft) 97,87 %
15.06.2021 14:18 26,4 C 29,4 C 25,6 C 54 % 1020,4 hPa 0,0 l/m 2 min 0 min 956 W/m 16,1 km/h (3 Bft) 97,87 %
15.06.2021 14:20 26,4 C 29,4 C 25,6 C 53 % 1020,4 hPa 0,0 l/m 2 min 0 min 947 W/m 29,0 km/h (5 Bft) 97,87 %
15.06.2021 14:22 26,4 C 28,9 C 25,0 C 53 % 1020,3 hPa 0,0 l/m 2 min 0 min 935 W/m 22,5 km/h (4 Bft) 97,87 %
15.06.2021 14:24 26,4 C 29,4 C 25,0 C 53 % 1020,3 hPa 0,0 l/m 2 min 0 min 913 W/m 16,1 km/h (3 Bft) 95,74 %
15.06.2021 14:26 26,4 C 29,4 C 25,0 C 53 % 1020,4 hPa 0,0 l/m 2 min 0 min 817 W/m 19,3 km/h (3 Bft) 97,83 %
15.06.2021 14:28 26,4 C 28,9 C 25,0 C 53 % 1020,4 hPa 0,0 l/m 2 min 0 min 752 W/m 16,1 km/h (3 Bft) 97,87 %
15.06.2021 14:30 26,4 C 28,3 C 24,5 C 51 % 1020,5 hPa 0,0 l/m 2 min 0 min 469 W/m 22,5 km/h (4 Bft) 97,87 %
15.06.2021 14:32 26,2 C 27,2 C 24,5 C 51 % 1020,4 hPa 0,0 l/m 0 min 0 min 442 W/m 19,3 km/h (3 Bft) 97,87 %
15.06.2021 14:34 26,0 C 27,2 C 24,5 C 52 % 1020,4 hPa 0,0 l/m 2 min 0 min 557 W/m 12,9 km/h (3 Bft) 95,74 %
15.06.2021 14:36 26,0 C 27,2 C 24,5 C 53 % 1020,4 hPa 0,0 l/m 2 min 0 min 615 W/m 19,3 km/h (3 Bft) 97,87 %
15.06.2021 14:38 25,9 C 27,2 C 24,5 C 53 % 1020,4 hPa 0,0 l/m 2 min 0 min 521 W/m 25,7 km/h (4 Bft) 97,83 %
15.06.2021 14:40 25,8 C 27,2 C 24,5 C 53 % 1020,4 hPa 0,0 l/m 2 min 0 min 590 W/m 19,3 km/h (3 Bft) 97,87 %
15.06.2021 14:42 25,8 C 27,8 C 24,5 C 55 % 1020,4 hPa 0,0 l/m 2 min 0 min 790 W/m 19,3 km/h (3 Bft) 97,87 %
15.06.2021 14:44 25,9 C 28,9 C 25,0 C 54 % 1020,4 hPa 0,0 l/m 2 min 0 min 881 W/m 12,9 km/h (3 Bft) 100,00 %
15.06.2021 14:46 26,0 C 28,9 C 25,0 C 53 % 1020,4 hPa 0,0 l/m 2 min 0 min 876 W/m 12,9 km/h (3 Bft) 100,00 %
15.06.2021 14:48 26,1 C 29,4 C 25,0 C 52 % 1020,4 hPa 0,0 l/m 2 min 0 min 851 W/m 19,3 km/h (3 Bft) 100,00 %
15.06.2021 14:50 26,2 C 28,9 C 24,5 C 52 % 1020,4 hPa 0,0 l/m 2 min 0 min 782 W/m 16,1 km/h (3 Bft) 97,83 %
15.06.2021 14:52 26,2 C 28,9 C 24,5 C 53 % 1020,4 hPa 0,0 l/m 2 min 0 min 663 W/m 16,1 km/h (3 Bft) 100,00 %
15.06.2021 14:54 26,3 C 28,3 C 24,5 C 53 % 1020,4 hPa 0,0 l/m 2 min 0 min 649 W/m 9,7 km/h (2 Bft) 100,00 %
15.06.2021 14:56 26,3 C 28,3 C 25,0 C 54 % 1020,4 hPa 0,0 l/m 2 min 0 min 572 W/m 16,1 km/h (3 Bft) 100,00 %
15.06.2021 14:58 26,3 C 27,8 C 24,5 C 53 % 1020,3 hPa 0,0 l/m 2 min 0 min 481 W/m 19,3 km/h (3 Bft) 100,00 %
15.06.2021 15:00 26,2 C 27,8 C 24,5 C 52 % 1020,4 hPa 0,0 l/m 2 min 0 min 446 W/m 16,1 km/h (3 Bft) 97,87 %
15.06.2021 15:02 26,1 C 27,8 C 24,5 C 54 % 1020,4 hPa 0,0 l/m 2 min 0 min 441 W/m 19,3 km/h (3 Bft) 97,83 %
15.06.2021 15:04 26,0 C 27,2 C 24,5 C 52 % 1020,3 hPa 0,0 l/m 2 min 0 min 462 W/m 9,7 km/h (2 Bft) 100,00 %
15.06.2021 15:06 25,9 C 27,2 C 24,5 C 53 % 1020,3 hPa 0,0 l/m 2 min 0 min 496 W/m 12,9 km/h (3 Bft) 100,00 %
15.06.2021 15:08 25,9 C 27,2 C 24,5 C 53 % 1020,2 hPa 0,0 l/m 2 min 0 min 498 W/m 12,9 km/h (3 Bft) 100,00 %
15.06.2021 15:10 25,9 C 27,8 C 24,5 C 54 % 1020,1 hPa 0,0 l/m 2 min 0 min 547 W/m 12,9 km/h (3 Bft) 97,87 %
15.06.2021 15:12 25,9 C 27,8 C 24,5 C 53 % 1020,2 hPa 0,0 l/m 2 min 0 min 719 W/m 12,9 km/h (3 Bft) 100,00 %
15.06.2021 15:14 25,9 C 28,3 C 24,5 C 54 % 1020,2 hPa 0,0 l/m 2 min 0 min 789 W/m 16,1 km/h (3 Bft) 100,00 %
15.06.2021 15:16 26,0 C 28,9 C 24,5 C 54 % 1020,2 hPa 0,0 l/m 2 min 0 min 789 W/m 12,9 km/h (3 Bft) 100,00 %
15.06.2021 15:18 26,0 C 28,3 C 24,5 C 54 % 1020,2 hPa 0,0 l/m 2 min 0 min 649 W/m 12,9 km/h (3 Bft) 100,00 %
15.06.2021 15:20 26,0 C 28,3 C 24,5 C 52 % 1020,2 hPa 0,0 l/m 2 min 0 min 621 W/m 9,7 km/h (2 Bft) 97,87 %
15.06.2021 15:22 26,0 C 28,9 C 24,5 C 52 % 1020,2 hPa 0,0 l/m 2 min 0 min 785 W/m 12,9 km/h (3 Bft) 97,87 %
15.06.2021 15:24 26,1 C 28,9 C 24,5 C 52 % 1020,2 hPa 0,0 l/m 2 min 0 min 870 W/m 16,1 km/h (3 Bft) 97,87 %
15.06.2021 15:26 26,1 C 28,3 C 24,5 C 50 % 1020,2 hPa 0,0 l/m 2 min 0 min 795 W/m 32,2 km/h (5 Bft) 96,30 %
15.06.2021 15:28 26,1 C 28,3 C 24,5 C 51 % 1020,2 hPa 0,0 l/m 2 min 0 min 760 W/m 19,3 km/h (3 Bft) 97,87 %
15.06.2021 15:30 26,2 C 28,3 C 24,5 C 51 % 1020,3 hPa 0,0 l/m 2 min 0 min 675 W/m 16,1 km/h (3 Bft) 97,37 %
15.06.2021 15:32 26,2 C 28,3 C 24,5 C 50 % 1020,2 hPa 0,0 l/m 2 min 0 min 631 W/m 19,3 km/h (3 Bft) 97,87 %
15.06.2021 15:34 26,2 C 28,3 C 24,5 C 51 % 1020,1 hPa 0,0 l/m 2 min 0 min 599 W/m 16,1 km/h (3 Bft) 97,87 %
15.06.2021 15:36 26,2 C 28,3 C 24,5 C 51 % 1020,1 hPa 0,0 l/m 2 min 0 min 679 W/m 12,9 km/h (3 Bft) 97,83 %
15.06.2021 15:38 26,3 C 28,9 C 24,5 C 52 % 1020,1 hPa 0,0 l/m 2 min 0 min 776 W/m 19,3 km/h (3 Bft) 93,62 %
15.06.2021 15:40 26,3 C 28,9 C 24,5 C 51 % 1020,2 hPa 0,0 l/m 2 min 0 min 784 W/m 19,3 km/h (3 Bft) 95,74 %
15.06.2021 15:42 26,3 C 29,4 C 24,5 C 50 % 1020,1 hPa 0,0 l/m 2 min 0 min 835 W/m 9,7 km/h (2 Bft) 95,74 %
15.06.2021 15:44 26,3 C 29,4 C 24,5 C 51 % 1020,1 hPa 0,0 l/m 2 min 0 min 820 W/m 9,7 km/h (2 Bft) 95,74 %
15.06.2021 15:46 26,4 C 29,4 C 24,5 C 50 % 1020,1 hPa 0,0 l/m 2 min 0 min 825 W/m 16,1 km/h (3 Bft) 95,74 %
15.06.2021 15:48 26,4 C 28,9 C 24,5 C 50 % 1020,1 hPa 0,0 l/m 2 min 0 min 815 W/m 16,1 km/h (3 Bft) 95,65 %
15.06.2021 15:50 26,3 C 28,3 C 23,9 C 50 % 1020,0 hPa 0,0 l/m 2 min 0 min 759 W/m 16,1 km/h (3 Bft) 95,74 %
15.06.2021 15:52 26,3 C 28,3 C 23,9 C 50 % 1020,1 hPa 0,0 l/m 2 min 0 min 530 W/m 19,3 km/h (3 Bft) 95,74 %
15.06.2021 15:54 26,3 C 28,3 C 23,9 C 50 % 1020,0 hPa 0,0 l/m 2 min 0 min 435 W/m 9,7 km/h (2 Bft) 95,74 %
15.06.2021 15:56 26,3 C 28,3 C 23,9 C 50 % 1019,9 hPa 0,0 l/m 2 min 0 min 551 W/m 29,0 km/h (5 Bft) 95,74 %
15.06.2021 15:58 26,3 C 29,4 C 24,5 C 52 % 1019,9 hPa 0,0 l/m 2 min 0 min 644 W/m 19,3 km/h (3 Bft) 95,65 %
15.06.2021 16:00 26,3 C 28,9 C 24,5 C 50 % 1019,9 hPa 0,0 l/m 2 min 0 min 710 W/m 12,9 km/h (3 Bft) 95,74 %
15.06.2021 16:02 26,3 C 29,4 C 24,5 C 52 % 1019,9 hPa 0,0 l/m 2 min 0 min 573 W/m 16,1 km/h (3 Bft) 95,74 %
15.06.2021 16:04 26,4 C 30,0 C 24,5 C 50 % 1019,9 hPa 0,0 l/m 2 min 0 min 737 W/m 9,7 km/h (2 Bft) 95,74 %
15.06.2021 16:06 26,3 C 30,6 C 24,5 C 51 % 1019,8 hPa 0,0 l/m 2 min 0 min 749 W/m 9,7 km/h (2 Bft) 93,62 %
15.06.2021 16:08 26,4 C 30,6 C 24,5 C 51 % 1019,8 hPa 0,0 l/m 2 min 0 min 770 W/m 12,9 km/h (3 Bft) 95,74 %
15.06.2021 16:10 26,5 C 31,1 C 25,0 C 51 % 1019,8 hPa 0,0 l/m 2 min 0 min 790 W/m 12,9 km/h (3 Bft) 95,74 %
15.06.2021 16:12 26,7 C 31,7 C 25,0 C 51 % 1019,8 hPa 0,0 l/m 2 min 0 min 777 W/m 9,7 km/h (2 Bft) 95,65 %
15.06.2021 16:14 26,8 C 31,7 C 25,0 C 51 % 1019,8 hPa 0,0 l/m 2 min 0 min 751 W/m 12,9 km/h (3 Bft) 95,74 %
15.06.2021 16:16 26,9 C 31,7 C 25,0 C 50 % 1019,8 hPa 0,0 l/m 2 min 0 min 778 W/m 9,7 km/h (2 Bft) 97,87 %
15.06.2021 16:18 26,9 C 31,7 C 25,0 C 50 % 1019,8 hPa 0,0 l/m 2 min 0 min 775 W/m 16,1 km/h (3 Bft) 95,74 %
15.06.2021 16:20 27,0 C 31,1 C 25,0 C 50 % 1019,8 hPa 0,0 l/m 2 min 0 min 745 W/m 12,9 km/h (3 Bft) 97,87 %
15.06.2021 16:22 26,9 C 31,1 C 25,0 C 50 % 1019,7 hPa 0,0 l/m 2 min 0 min 698 W/m 12,9 km/h (3 Bft) 93,62 %
15.06.2021 16:24 26,9 C 31,1 C 25,0 C 50 % 1019,7 hPa 0,0 l/m 2 min 0 min 744 W/m 12,9 km/h (3 Bft) 97,83 %
15.06.2021 16:26 26,9 C 31,7 C 25,0 C 51 % 1019,7 hPa 0,0 l/m 2 min 0 min 721 W/m 12,9 km/h (3 Bft) 95,74 %
15.06.2021 16:28 27,0 C 31,1 C 25,0 C 50 % 1019,7 hPa 0,0 l/m 2 min 0 min 786 W/m 16,1 km/h (3 Bft) 95,74 %
15.06.2021 16:30 27,0 C 31,1 C 25,0 C 50 % 1019,7 hPa 0,0 l/m 2 min 0 min 719 W/m 9,7 km/h (2 Bft) 95,74 %
15.06.2021 16:32 27,0 C 30,6 C 25,0 C 50 % 1019,7 hPa 0,0 l/m 2 min 0 min 704 W/m 16,1 km/h (3 Bft) 93,62 %
15.06.2021 16:34 27,0 C 30,6 C 25,0 C 51 % 1019,7 hPa 0,0 l/m 2 min 0 min 443 W/m 9,7 km/h (2 Bft) 95,65 %
15.06.2021 16:36 26,9 C 30,0 C 24,5 C 50 % 1019,7 hPa 0,0 l/m 2 min 0 min 392 W/m 9,7 km/h (2 Bft) 95,74 %
15.06.2021 16:38 26,9 C 30,0 C 24,5 C 50 % 1019,6 hPa 0,0 l/m 2 min 0 min 497 W/m 16,1 km/h (3 Bft) 97,87 %
15.06.2021 16:40 26,9 C 30,6 C 24,5 C 51 % 1019,6 hPa 0,0 l/m 2 min 0 min 703 W/m 16,1 km/h (3 Bft) 95,74 %
15.06.2021 16:42 26,9 C 29,4 C 25,0 C 51 % 1019,6 hPa 0,0 l/m 2 min 0 min 616 W/m 16,1 km/h (3 Bft) 93,62 %
15.06.2021 16:44 26,8 C 28,9 C 24,5 C 51 % 1019,5 hPa 0,0 l/m 0 min 0 min 354 W/m 12,9 km/h (3 Bft) 95,74 %
15.06.2021 16:46 26,7 C 29,4 C 24,5 C 51 % 1019,5 hPa 0,0 l/m 2 min 0 min 402 W/m 9,7 km/h (2 Bft) 97,83 %
15.06.2021 16:48 26,6 C 29,4 C 24,5 C 51 % 1019,5 hPa 0,0 l/m 2 min 0 min 496 W/m 9,7 km/h (2 Bft) 97,87 %
15.06.2021 16:50 26,5 C 29,4 C 24,5 C 52 % 1019,5 hPa 0,0 l/m 2 min 0 min 494 W/m 19,3 km/h (3 Bft) 97,87 %
15.06.2021 16:52 26,5 C 30,0 C 24,5 C 52 % 1019,5 hPa 0,0 l/m 2 min 0 min 550 W/m 12,9 km/h (3 Bft) 95,74 %
15.06.2021 16:54 26,5 C 30,6 C 24,5 C 52 % 1019,5 hPa 0,0 l/m 2 min 0 min 583 W/m 9,7 km/h (2 Bft) 97,87 %
15.06.2021 16:56 26,5 C 30,0 C 24,5 C 52 % 1019,5 hPa 0,0 l/m 2 min 0 min 381 W/m 19,3 km/h (3 Bft) 97,87 %
15.06.2021 16:58 26,5 C 30,0 C 24,5 C 52 % 1019,5 hPa 0,0 l/m 2 min 0 min 552 W/m 12,9 km/h (3 Bft) 97,83 %
15.06.2021 17:00 26,5 C 29,4 C 24,5 C 51 % 1019,5 hPa 0,0 l/m 2 min 0 min 481 W/m 12,9 km/h (3 Bft) 95,74 %
15.06.2021 17:02 26,5 C 30,0 C 24,5 C 52 % 1019,4 hPa 0,0 l/m 2 min 0 min 621 W/m 12,9 km/h (3 Bft) 97,87 %
15.06.2021 17:04 26,6 C 31,1 C 24,5 C 52 % 1019,4 hPa 0,0 l/m 2 min 0 min 672 W/m 3,2 km/h (1 Bft) 97,87 %
15.06.2021 17:06 26,6 C 31,7 C 25,0 C 52 % 1019,4 hPa 0,0 l/m 2 min 0 min 651 W/m 12,9 km/h (3 Bft) 97,87 %
15.06.2021 17:08 26,8 C 31,1 C 25,0 C 52 % 1019,3 hPa 0,0 l/m 2 min 0 min 626 W/m 12,9 km/h (3 Bft) 93,62 %
15.06.2021 17:10 26,8 C 31,1 C 25,0 C 53 % 1019,4 hPa 0,0 l/m 2 min 0 min 601 W/m 12,9 km/h (3 Bft) 100,00 %
15.06.2021 17:12 26,9 C 31,1 C 25,0 C 53 % 1019,3 hPa 0,0 l/m 2 min 0 min 558 W/m 12,9 km/h (3 Bft) 100,00 %
15.06.2021 17:14 26,9 C 31,1 C 25,0 C 52 % 1019,3 hPa 0,0 l/m 2 min 0 min 576 W/m 19,3 km/h (3 Bft) 100,00 %
15.06.2021 17:16 27,0 C 31,7 C 25,0 C 53 % 1019,4 hPa 0,0 l/m 2 min 0 min 588 W/m 16,1 km/h (3 Bft) 97,87 %
15.06.2021 17:18 27,1 C 31,7 C 25,0 C 53 % 1019,3 hPa 0,0 l/m 2 min 0 min 582 W/m 12,9 km/h (3 Bft) 97,87 %
15.06.2021 17:20 27,1 C 31,1 C 25,0 C 52 % 1019,3 hPa 0,0 l/m 2 min 0 min 569 W/m 19,3 km/h (3 Bft) 100,00 %
15.06.2021 17:22 27,2 C 31,7 C 25,0 C 52 % 1019,3 hPa 0,0 l/m 2 min 0 min 597 W/m 19,3 km/h (3 Bft) 100,00 %
15.06.2021 17:24 27,3 C 31,7 C 25,0 C 51 % 1019,3 hPa 0,0 l/m 2 min 0 min 611 W/m 12,9 km/h (3 Bft) 100,00 %
15.06.2021 17:26 27,3 C 32,8 C 25,0 C 52 % 1019,3 hPa 0,0 l/m 2 min 0 min 607 W/m 9,7 km/h (2 Bft) 95,74 %
15.06.2021 17:28 27,4 C 32,8 C 25,6 C 52 % 1019,3 hPa 0,0 l/m 2 min 0 min 611 W/m 16,1 km/h (3 Bft) 100,00 %
15.06.2021 17:30 27,4 C 31,7 C 25,0 C 51 % 1019,2 hPa 0,0 l/m 2 min 0 min 604 W/m 16,1 km/h (3 Bft) 100,00 %
15.06.2021 17:32 27,3 C 31,7 C 25,0 C 52 % 1019,3 hPa 0,0 l/m 2 min 0 min 597 W/m 19,3 km/h (3 Bft) 100,00 %
15.06.2021 17:34 27,3 C 31,7 C 25,0 C 51 % 1019,3 hPa 0,0 l/m 2 min 0 min 586 W/m 6,4 km/h (2 Bft) 100,00 %
15.06.2021 17:36 27,3 C 31,7 C 25,0 C 52 % 1019,2 hPa 0,0 l/m 2 min 0 min 591 W/m 9,7 km/h (2 Bft) 100,00 %
15.06.2021 17:38 27,3 C 32,2 C 25,6 C 51 % 1019,2 hPa 0,0 l/m 2 min 0 min 573 W/m 16,1 km/h (3 Bft) 100,00 %
15.06.2021 17:40 27,4 C 32,2 C 25,6 C 51 % 1019,2 hPa 0,0 l/m 2 min 0 min 581 W/m 19,3 km/h (3 Bft) 100,00 %
15.06.2021 17:42 27,4 C 31,7 C 25,6 C 51 % 1019,1 hPa 0,0 l/m 2 min 0 min 578 W/m 19,3 km/h (3 Bft) 100,00 %
15.06.2021 17:44 27,4 C 31,1 C 25,6 C 51 % 1019,2 hPa 0,0 l/m 2 min 0 min 521 W/m 16,1 km/h (3 Bft) 100,00 %
15.06.2021 17:46 27,3 C 30,6 C 25,0 C 51 % 1019,2 hPa 0,0 l/m 2 min 0 min 500 W/m 9,7 km/h (2 Bft) 100,00 %
15.06.2021 17:48 27,3 C 31,1 C 25,6 C 51 % 1019,2 hPa 0,0 l/m 2 min 0 min 589 W/m 9,7 km/h (2 Bft) 100,00 %
15.06.2021 17:50 27,3 C 31,7 C 25,6 C 52 % 1019,2 hPa 0,0 l/m 2 min 0 min 563 W/m 9,7 km/h (2 Bft) 100,00 %
15.06.2021 17:52 27,2 C 31,7 C 25,0 C 51 % 1019,1 hPa 0,0 l/m 2 min 0 min 583 W/m 9,7 km/h (2 Bft) 100,00 %
15.06.2021 17:54 27,2 C 32,2 C 25,6 C 51 % 1019,1 hPa 0,0 l/m 2 min 0 min 621 W/m 16,1 km/h (3 Bft) 100,00 %
15.06.2021 17:56 27,2 C 32,8 C 25,6 C 51 % 1019,1 hPa 0,0 l/m 2 min 0 min 627 W/m 6,4 km/h (2 Bft) 100,00 %
15.06.2021 17:58 27,3 C 32,2 C 25,6 C 51 % 1019,1 hPa 0,0 l/m 2 min 0 min 572 W/m 12,9 km/h (3 Bft) 100,00 %
15.06.2021 18:00 27,3 C 32,2 C 25,6 C 51 % 1019,1 hPa 0,0 l/m 2 min 0 min 490 W/m 9,7 km/h (2 Bft) 100,00 %
15.06.2021 18:02 27,4 C 32,2 C 25,6 C 50 % 1019,1 hPa 0,0 l/m 2 min 0 min 545 W/m 12,9 km/h (3 Bft) 100,00 %
15.06.2021 18:04 27,4 C 31,7 C 25,6 C 49 % 1019,1 hPa 0,0 l/m 2 min 0 min 578 W/m 16,1 km/h (3 Bft) 100,00 %
15.06.2021 18:08 27,5 C 31,7 C 25,6 C 50 % 1019,1 hPa 0,0 l/m 4 min 0 min 563 W/m 19,3 km/h (3 Bft) 98,94 %
15.06.2021 18:10 27,5 C 32,2 C 25,6 C 51 % 1019,1 hPa 0,0 l/m 2 min 0 min 565 W/m 16,1 km/h (3 Bft) 100,00 %
15.06.2021 18:12 27,5 C 32,2 C 25,6 C 50 % 1019,1 hPa 0,0 l/m 2 min 0 min 542 W/m 12,9 km/h (3 Bft) 100,00 %
15.06.2021 18:14 27,5 C 32,2 C 25,6 C 50 % 1019,0 hPa 0,0 l/m 2 min 0 min 463 W/m 6,4 km/h (2 Bft) 100,00 %
15.06.2021 18:16 27,6 C 31,1 C 25,6 C 51 % 1019,0 hPa 0,0 l/m 2 min 0 min 334 W/m 6,4 km/h (2 Bft) 100,00 %
15.06.2021 18:18 27,5 C 29,4 C 25,0 C 50 % 1019,1 hPa 0,0 l/m 2 min 0 min 280 W/m 12,9 km/h (3 Bft) 100,00 %
15.06.2021 18:20 27,4 C 28,9 C 25,0 C 51 % 1019,0 hPa 0,0 l/m 0 min 0 min 245 W/m 12,9 km/h (3 Bft) 100,00 %
15.06.2021 18:22 27,2 C 28,3 C 24,5 C 51 % 1019,0 hPa 0,0 l/m 2 min 0 min 256 W/m 16,1 km/h (3 Bft) 100,00 %
15.06.2021 18:24 27,1 C 28,9 C 24,5 C 51 % 1019,0 hPa 0,0 l/m 2 min 0 min 328 W/m 6,4 km/h (2 Bft) 97,87 %
15.06.2021 18:26 27,0 C 28,9 C 24,5 C 51 % 1019,0 hPa 0,0 l/m 2 min 0 min 372 W/m 9,7 km/h (2 Bft) 100,00 %
15.06.2021 18:28 27,0 C 29,4 C 24,5 C 52 % 1019,0 hPa 0,0 l/m 2 min 0 min 381 W/m 6,4 km/h (2 Bft) 100,00 %
15.06.2021 18:30 26,9 C 29,4 C 24,5 C 51 % 1019,0 hPa 0,0 l/m 2 min 0 min 394 W/m 19,3 km/h (3 Bft) 100,00 %
15.06.2021 18:32 26,9 C 28,9 C 24,5 C 52 % 1019,0 hPa 0,0 l/m 2 min 0 min 316 W/m 9,7 km/h (2 Bft) 100,00 %
15.06.2021 18:34 26,9 C 28,3 C 24,5 C 53 % 1019,0 hPa 0,0 l/m 2 min 0 min 271 W/m 6,4 km/h (2 Bft) 97,87 %
15.06.2021 18:36 26,8 C 28,3 C 24,5 C 53 % 1019,0 hPa 0,0 l/m 2 min 0 min 240 W/m 12,9 km/h (3 Bft) 100,00 %
15.06.2021 18:38 26,8 C 27,2 C 23,9 C 52 % 1019,0 hPa 0,0 l/m 2 min 0 min 236 W/m 12,9 km/h (3 Bft) 100,00 %
15.06.2021 18:40 26,6 C 27,2 C 23,9 C 51 % 1019,0 hPa 0,0 l/m 2 min 0 min 250 W/m 6,4 km/h (2 Bft) 100,00 %
15.06.2021 18:42 26,5 C 26,7 C 23,9 C 52 % 1019,0 hPa 0,0 l/m 2 min 0 min 258 W/m 12,9 km/h (3 Bft) 100,00 %
15.06.2021 18:44 26,4 C 26,7 C 23,9 C 53 % 1018,9 hPa 0,0 l/m 2 min 0 min 253 W/m 19,3 km/h (3 Bft) 95,65 %
15.06.2021 18:46 26,3 C 26,7 C 23,4 C 53 % 1018,9 hPa 0,0 l/m 2 min 0 min 247 W/m 16,1 km/h (3 Bft) 97,87 %
15.06.2021 18:48 26,2 C 26,7 C 23,4 C 53 % 1018,9 hPa 0,0 l/m 2 min 0 min 257 W/m 9,7 km/h (2 Bft) 97,87 %
15.06.2021 18:50 26,1 C 26,7 C 23,4 C 54 % 1018,9 hPa 0,0 l/m 2 min 0 min 295 W/m 9,7 km/h (2 Bft) 97,87 %
15.06.2021 18:52 26,0 C 26,7 C 23,4 C 54 % 1018,9 hPa 0,0 l/m 2 min 0 min 254 W/m 12,9 km/h (3 Bft) 97,87 %
15.06.2021 18:54 26,0 C 26,7 C 23,4 C 54 % 1019,0 hPa 0,0 l/m 2 min 0 min 256 W/m 16,1 km/h (3 Bft) 95,74 %
15.06.2021 18:56 25,9 C 27,2 C 23,4 C 53 % 1018,9 hPa 0,0 l/m 2 min 0 min 330 W/m 12,9 km/h (3 Bft) 97,83 %
15.06.2021 18:58 25,9 C 27,2 C 23,9 C 54 % 1019,0 hPa 0,0 l/m 2 min 0 min 308 W/m 19,3 km/h (3 Bft) 95,74 %
15.06.2021 19:00 25,9 C 27,2 C 23,9 C 53 % 1018,9 hPa 0,0 l/m 2 min 0 min 301 W/m 6,4 km/h (2 Bft) 95,74 %
15.06.2021 19:02 25,9 C 27,8 C 23,9 C 53 % 1018,9 hPa 0,0 l/m 2 min 0 min 305 W/m 12,9 km/h (3 Bft) 93,75 %
15.06.2021 19:04 25,9 C 27,2 C 23,9 C 53 % 1018,9 hPa 0,0 l/m 2 min 0 min 306 W/m 22,5 km/h (4 Bft) 91,49 %
15.06.2021 19:06 25,9 C 27,2 C 23,9 C 54 % 1018,9 hPa 0,0 l/m 2 min 0 min 310 W/m 9,7 km/h (2 Bft) 93,62 %
15.06.2021 19:08 25,9 C 26,7 C 23,4 C 53 % 1018,9 hPa 0,0 l/m 2 min 0 min 242 W/m 9,7 km/h (2 Bft) 95,65 %
15.06.2021 19:10 25,9 C 26,7 C 23,4 C 53 % 1018,9 hPa 0,0 l/m 2 min 0 min 213 W/m 22,5 km/h (4 Bft) 94,44 %
15.06.2021 19:12 25,9 C 26,7 C 23,4 C 54 % 1018,8 hPa 0,0 l/m 2 min 0 min 189 W/m 9,7 km/h (2 Bft) 95,74 %
15.06.2021 19:14 25,9 C 26,1 C 23,4 C 54 % 1018,8 hPa 0,0 l/m 0 min 0 min 176 W/m 6,4 km/h (2 Bft) 89,36 %
15.06.2021 19:16 25,9 C 26,1 C 23,4 C 54 % 1018,8 hPa 0,0 l/m 2 min 0 min 185 W/m 6,4 km/h (2 Bft) 91,30 %
15.06.2021 19:18 25,9 C 26,1 C 22,8 C 55 % 1018,9 hPa 0,0 l/m 2 min 0 min 212 W/m 9,7 km/h (2 Bft) 93,62 %
15.06.2021 19:20 25,8 C 26,1 C 22,8 C 54 % 1018,9 hPa 0,0 l/m 2 min 0 min 257 W/m 9,7 km/h (2 Bft) 91,49 %
15.06.2021 19:22 25,7 C 26,1 C 22,8 C 54 % 1018,8 hPa 0,0 l/m 2 min 0 min 252 W/m 12,9 km/h (3 Bft) 93,62 %
15.06.2021 19:24 25,7 C 26,1 C 22,8 C 55 % 1018,8 hPa 0,0 l/m 2 min 0 min 242 W/m 9,7 km/h (2 Bft) 93,62 %
15.06.2021 19:26 25,7 C 26,1 C 22,8 C 55 % 1018,8 hPa 0,0 l/m 2 min 0 min 222 W/m 16,1 km/h (3 Bft) 91,49 %
15.06.2021 19:28 25,6 C 25,6 C 22,8 C 54 % 1018,7 hPa 0,0 l/m 2 min 0 min 215 W/m 6,4 km/h (2 Bft) 93,48 %
15.06.2021 19:30 25,6 C 25,6 C 22,8 C 55 % 1018,7 hPa 0,0 l/m 2 min 0 min 169 W/m 9,7 km/h (2 Bft) 93,62 %
15.06.2021 19:32 25,6 C 25,0 C 22,3 C 54 % 1018,7 hPa 0,0 l/m 0 min 0 min 122 W/m 16,1 km/h (3 Bft) 82,98 %
15.06.2021 19:34 25,5 C 25,0 C 22,3 C 55 % 1018,7 hPa 0,0 l/m 0 min 0 min 101 W/m 9,7 km/h (2 Bft) 89,36 %
15.06.2021 19:36 25,5 C 25,0 C 22,3 C 54 % 1018,7 hPa 0,0 l/m 0 min 0 min 99 W/m 12,9 km/h (3 Bft) 93,62 %
15.06.2021 19:38 25,4 C 25,0 C 22,3 C 55 % 1018,7 hPa 0,0 l/m 0 min 0 min 106 W/m 9,7 km/h (2 Bft) 94,00 %
15.06.2021 19:40 25,3 C 24,4 C 22,3 C 55 % 1018,7 hPa 0,0 l/m 0 min 0 min 120 W/m 9,7 km/h (2 Bft) 91,43 %
15.06.2021 19:42 25,2 C 24,4 C 22,3 C 55 % 1018,7 hPa 0,0 l/m 0 min 0 min 131 W/m 9,7 km/h (2 Bft) 93,48 %
15.06.2021 19:44 25,1 C 24,4 C 21,7 C 55 % 1018,7 hPa 0,0 l/m 0 min 0 min 98 W/m 6,4 km/h (2 Bft) 95,74 %
15.06.2021 19:46 25,0 C 23,9 C 21,7 C 54 % 1018,6 hPa 0,0 l/m 0 min 0 min 92 W/m 16,1 km/h (3 Bft) 95,74 %
15.06.2021 19:48 24,9 C 23,9 C 21,7 C 55 % 1018,6 hPa 0,0 l/m 0 min 0 min 97 W/m 9,7 km/h (2 Bft) 97,87 %
15.06.2021 19:50 24,8 C 23,9 C 21,7 C 55 % 1018,6 hPa 0,0 l/m 0 min 0 min 123 W/m 12,9 km/h (3 Bft) 97,87 %
15.06.2021 19:52 24,7 C 23,9 C 21,7 C 55 % 1018,6 hPa 0,0 l/m 2 min 0 min 159 W/m 6,4 km/h (2 Bft) 97,87 %
15.06.2021 19:54 24,6 C 23,9 C 21,7 C 55 % 1018,6 hPa 0,0 l/m 2 min 0 min 158 W/m 6,4 km/h (2 Bft) 97,83 %
15.06.2021 19:56 24,5 C 23,9 C 21,7 C 56 % 1018,6 hPa 0,0 l/m 2 min 0 min 150 W/m 6,4 km/h (2 Bft) 97,87 %
15.06.2021 19:58 24,5 C 23,9 C 21,7 C 56 % 1018,6 hPa 0,0 l/m 2 min 0 min 145 W/m 6,4 km/h (2 Bft) 100,00 %
15.06.2021 20:00 24,5 C 23,9 C 21,7 C 56 % 1018,6 hPa 0,0 l/m 2 min 0 min 129 W/m 12,9 km/h (3 Bft) 100,00 %
15.06.2021 20:02 24,4 C 23,9 C 21,7 C 56 % 1018,5 hPa 0,0 l/m 0 min 0 min 106 W/m 12,9 km/h (3 Bft) 97,87 %
15.06.2021 20:04 24,4 C 23,9 C 21,7 C 56 % 1018,5 hPa 0,0 l/m 0 min 0 min 94 W/m 12,9 km/h (3 Bft) 100,00 %
15.06.2021 20:06 24,4 C 23,9 C 21,7 C 56 % 1018,5 hPa 0,0 l/m 0 min 0 min 90 W/m 9,7 km/h (2 Bft) 97,83 %
15.06.2021 20:08 24,3 C 23,9 C 21,1 C 56 % 1018,6 hPa 0,0 l/m 0 min 0 min 86 W/m 6,4 km/h (2 Bft) 100,00 %
15.06.2021 20:10 24,3 C 23,9 C 21,1 C 56 % 1018,6 hPa 0,0 l/m 0 min 0 min 84 W/m 9,7 km/h (2 Bft) 100,00 %
15.06.2021 20:12 24,2 C 23,9 C 21,1 C 56 % 1018,6 hPa 0,0 l/m 0 min 0 min 83 W/m 19,3 km/h (3 Bft) 100,00 %
15.06.2021 20:14 24,1 C 23,3 C 21,1 C 56 % 1018,5 hPa 0,0 l/m 0 min 0 min 81 W/m 19,3 km/h (3 Bft) 100,00 %
15.06.2021 20:16 24,1 C 23,3 C 21,1 C 57 % 1018,5 hPa 0,0 l/m 0 min 0 min 78 W/m 9,7 km/h (2 Bft) 95,92 %
15.06.2021 20:18 24,1 C 23,3 C 21,1 C 56 % 1018,5 hPa 0,0 l/m 0 min 0 min 77 W/m 9,7 km/h (2 Bft) 100,00 %
15.06.2021 20:20 24,1 C 23,3 C 21,1 C 56 % 1018,5 hPa 0,0 l/m 0 min 0 min 76 W/m 12,9 km/h (3 Bft) 100,00 %
15.06.2021 20:22 24,0 C 23,3 C 21,1 C 57 % 1018,6 hPa 0,0 l/m 0 min 0 min 74 W/m 9,7 km/h (2 Bft) 100,00 %
15.06.2021 20:24 24,0 C 23,3 C 21,1 C 57 % 1018,6 hPa 0,0 l/m 0 min 0 min 73 W/m 6,4 km/h (2 Bft) 100,00 %
15.06.2021 20:26 24,0 C 23,3 C 21,1 C 57 % 1018,5 hPa 0,0 l/m 0 min 0 min 70 W/m 12,9 km/h (3 Bft) 100,00 %
15.06.2021 20:28 24,0 C 23,3 C 21,1 C 57 % 1018,5 hPa 0,0 l/m 0 min 0 min 68 W/m 12,9 km/h (3 Bft) 100,00 %
15.06.2021 20:30 24,0 C 23,3 C 21,1 C 57 % 1018,5 hPa 0,0 l/m 0 min 0 min 63 W/m 12,9 km/h (3 Bft) 100,00 %
15.06.2021 20:32 23,9 C 23,3 C 20,6 C 57 % 1018,5 hPa 0,0 l/m 0 min 0 min 60 W/m 9,7 km/h (2 Bft) 100,00 %
15.06.2021 20:34 23,9 C 23,3 C 20,6 C 57 % 1018,5 hPa 0,0 l/m 0 min 0 min 58 W/m 9,7 km/h (2 Bft) 100,00 %
15.06.2021 20:36 23,8 C 23,3 C 20,6 C 57 % 1018,5 hPa 0,0 l/m 0 min 0 min 58 W/m 16,1 km/h (3 Bft) 97,87 %
15.06.2021 20:38 23,8 C 22,8 C 20,6 C 57 % 1018,5 hPa 0,0 l/m 0 min 0 min 58 W/m 12,9 km/h (3 Bft) 100,00 %
15.06.2021 20:40 23,7 C 22,8 C 20,6 C 57 % 1018,6 hPa 0,0 l/m 0 min 0 min 58 W/m 12,9 km/h (3 Bft) 100,00 %
15.06.2021 20:42 23,6 C 22,8 C 20,6 C 57 % 1018,6 hPa 0,0 l/m 0 min 0 min 58 W/m 12,9 km/h (3 Bft) 100,00 %
15.06.2021 20:44 23,6 C 22,8 C 20,6 C 57 % 1018,6 hPa 0,0 l/m 0 min 0 min 56 W/m 9,7 km/h (2 Bft) 95,74 %
15.06.2021 20:46 23,6 C 22,8 C 20,6 C 57 % 1018,6 hPa 0,0 l/m 0 min 0 min 55 W/m 9,7 km/h (2 Bft) 100,00 %
15.06.2021 20:48 23,5 C 22,8 C 20,6 C 57 % 1018,6 hPa 0,0 l/m 0 min 0 min 54 W/m 12,9 km/h (3 Bft) 100,00 %
15.06.2021 20:50 23,5 C 22,8 C 20,6 C 57 % 1018,6 hPa 0,0 l/m 0 min 0 min 53 W/m 12,9 km/h (3 Bft) 100,00 %
15.06.2021 20:52 23,5 C 22,8 C 20,6 C 57 % 1018,6 hPa 0,0 l/m 0 min 0 min 52 W/m 12,9 km/h (3 Bft) 97,87 %
15.06.2021 20:54 23,5 C 22,8 C 20,6 C 58 % 1018,6 hPa 0,0 l/m 0 min 0 min 49 W/m 9,7 km/h (2 Bft) 100,00 %
15.06.2021 20:56 23,5 C 22,8 C 20,6 C 57 % 1018,5 hPa 0,0 l/m 0 min 0 min 46 W/m 12,9 km/h (3 Bft) 100,00 %
15.06.2021 20:58 23,4 C 22,8 C 20,6 C 57 % 1018,5 hPa 0,0 l/m 0 min 0 min 44 W/m 16,1 km/h (3 Bft) 100,00 %
15.06.2021 21:00 23,4 C 22,2 C 20,0 C 57 % 1018,5 hPa 0,0 l/m 0 min 0 min 42 W/m 12,9 km/h (3 Bft) 100,00 %
15.06.2021 21:02 23,3 C 22,2 C 20,0 C 57 % 1018,5 hPa 0,0 l/m 0 min 0 min 41 W/m 12,9 km/h (3 Bft) 100,00 %
15.06.2021 21:04 23,3 C 22,2 C 20,0 C 57 % 1018,5 hPa 0,0 l/m 0 min 0 min 40 W/m 16,1 km/h (3 Bft) 100,00 %
15.06.2021 21:06 23,3 C 22,2 C 20,0 C 57 % 1018,5 hPa 0,0 l/m 0 min 0 min 40 W/m 12,9 km/h (3 Bft) 100,00 %
15.06.2021 21:08 23,2 C 22,2 C 20,0 C 57 % 1018,5 hPa 0,0 l/m 0 min 0 min 40 W/m 12,9 km/h (3 Bft) 100,00 %
15.06.2021 21:10 23,1 C 22,2 C 20,0 C 58 % 1018,5 hPa 0,0 l/m 2 min 0 min 40 W/m 9,7 km/h (2 Bft) 97,62 %
15.06.2021 21:12 23,1 C 22,2 C 20,0 C 58 % 1018,5 hPa 0,0 l/m 2 min 0 min 39 W/m 6,4 km/h (2 Bft) 100,00 %
15.06.2021 21:14 23,1 C 22,2 C 20,0 C 59 % 1018,5 hPa 0,0 l/m 2 min 0 min 36 W/m 16,1 km/h (3 Bft) 100,00 %
15.06.2021 21:16 23,1 C 22,2 C 20,0 C 58 % 1018,5 hPa 0,0 l/m 2 min 0 min 34 W/m 9,7 km/h (2 Bft) 95,92 %
15.06.2021 21:18 23,0 C 22,2 C 20,0 C 58 % 1018,5 hPa 0,0 l/m 2 min 0 min 33 W/m 9,7 km/h (2 Bft) 100,00 %
15.06.2021 21:20 23,0 C 22,2 C 20,0 C 58 % 1018,5 hPa 0,0 l/m 2 min 0 min 32 W/m 9,7 km/h (2 Bft) 100,00 %
15.06.2021 21:22 23,0 C 22,2 C 20,0 C 59 % 1018,6 hPa 0,0 l/m 2 min 0 min 30 W/m 9,7 km/h (2 Bft) 100,00 %
15.06.2021 21:24 23,0 C 22,2 C 20,0 C 58 % 1018,5 hPa 0,0 l/m 2 min 0 min 27 W/m 19,3 km/h (3 Bft) 100,00 %
15.06.2021 21:26 22,9 C 22,2 C 20,0 C 59 % 1018,6 hPa 0,0 l/m 2 min 0 min 25 W/m 12,9 km/h (3 Bft) 97,83 %
15.06.2021 21:28 22,9 C 21,7 C 20,0 C 59 % 1018,6 hPa 0,0 l/m 2 min 0 min 22 W/m 6,4 km/h (2 Bft) 100,00 %
15.06.2021 21:30 22,9 C 21,7 C 19,5 C 59 % 1018,5 hPa 0,0 l/m 2 min 0 min 20 W/m 12,9 km/h (3 Bft) 100,00 %
15.06.2021 21:32 22,8 C 21,7 C 19,5 C 59 % 1018,6 hPa 0,0 l/m 0 min 0 min 19 W/m 9,7 km/h (2 Bft) 100,00 %
15.06.2021 21:34 22,8 C 21,7 C 19,5 C 59 % 1018,5 hPa 0,0 l/m 0 min 0 min 18 W/m 6,4 km/h (2 Bft) 97,87 %
15.06.2021 21:36 22,8 C 21,7 C 19,5 C 59 % 1018,6 hPa 0,0 l/m 0 min 0 min 16 W/m 6,4 km/h (2 Bft) 97,87 %
15.06.2021 21:38 22,8 C 21,7 C 19,5 C 59 % 1018,5 hPa 0,0 l/m 0 min 0 min 14 W/m 6,4 km/h (2 Bft) 95,65 %
15.06.2021 21:40 22,7 C 21,7 C 19,5 C 59 % 1018,6 hPa 0,0 l/m 0 min 0 min 12 W/m 12,9 km/h (3 Bft) 95,74 %
15.06.2021 21:42 22,6 C 21,7 C 19,5 C 59 % 1018,6 hPa 0,0 l/m 0 min 0 min 11 W/m 9,7 km/h (2 Bft) 97,87 %
15.06.2021 21:44 22,6 C 21,7 C 19,5 C 60 % 1018,6 hPa 0,0 l/m 0 min 0 min 9 W/m 6,4 km/h (2 Bft) 95,74 %
15.06.2021 21:46 22,6 C 21,1 C 19,5 C 59 % 1018,6 hPa 0,0 l/m 0 min 0 min 8 W/m 9,7 km/h (2 Bft) 95,74 %
15.06.2021 21:48 22,5 C 21,1 C 19,5 C 60 % 1018,6 hPa 0,0 l/m 0 min 0 min 7 W/m 3,2 km/h (1 Bft) 93,62 %
15.06.2021 21:50 22,5 C 21,1 C 18,9 C 60 % 1018,6 hPa 0,0 l/m 0 min 0 min 5 W/m 6,4 km/h (2 Bft) 97,83 %
15.06.2021 21:52 22,5 C 21,1 C 18,9 C 60 % 1018,6 hPa 0,0 l/m 0 min 0 min 5 W/m 3,2 km/h (1 Bft) 97,87 %
15.06.2021 21:54 22,4 C 21,1 C 18,9 C 61 % 1018,6 hPa 0,0 l/m 0 min 0 min 5 W/m 9,7 km/h (2 Bft) 95,74 %
15.06.2021 21:56 22,4 C 21,1 C 18,9 C 60 % 1018,6 hPa 0,0 l/m 0 min 0 min 5 W/m 6,4 km/h (2 Bft) 95,74 %
15.06.2021 21:58 22,4 C 21,1 C 18,9 C 61 % 1018,6 hPa 0,0 l/m 0 min 0 min 5 W/m 3,2 km/h (1 Bft) 95,74 %
15.06.2021 22:00 22,3 C 21,1 C 18,9 C 61 % 1018,6 hPa 0,0 l/m 0 min 0 min 5 W/m 6,4 km/h (2 Bft) 95,74 %
15.06.2021 22:02 22,3 C 21,1 C 18,9 C 60 % 1018,6 hPa 0,0 l/m 0 min 0 min 5 W/m 9,7 km/h (2 Bft) 93,48 %
15.06.2021 22:04 22,2 C 21,1 C 18,9 C 60 % 1018,6 hPa 0,0 l/m 0 min 0 min 5 W/m 6,4 km/h (2 Bft) 95,74 %
15.06.2021 22:06 22,1 C 21,1 C 18,9 C 60 % 1018,7 hPa 0,0 l/m 0 min 0 min 5 W/m 12,9 km/h (3 Bft) 95,74 %
15.06.2021 22:08 22,1 C 21,1 C 18,9 C 60 % 1018,7 hPa 0,0 l/m 0 min 0 min 5 W/m 6,4 km/h (2 Bft) 95,83 %
15.06.2021 22:10 22,0 C 21,1 C 18,9 C 61 % 1018,7 hPa 0,0 l/m 0 min 0 min 0 W/m 3,2 km/h (1 Bft) 93,62 %
15.06.2021 22:12 22,0 C 20,6 C 18,9 C 61 % 1018,7 hPa 0,0 l/m 0 min 0 min 0 W/m 9,7 km/h (2 Bft) 93,62 %
15.06.2021 22:14 22,0 C 20,6 C 18,9 C 61 % 1018,7 hPa 0,0 l/m 0 min 0 min 0 W/m 12,9 km/h (3 Bft) 95,65 %
15.06.2021 22:16 22,0 C 20,6 C 18,9 C 61 % 1018,7 hPa 0,0 l/m 0 min 0 min 0 W/m 9,7 km/h (2 Bft) 95,74 %
15.06.2021 22:18 21,9 C 20,6 C 18,4 C 62 % 1018,8 hPa 0,0 l/m 0 min 0 min 0 W/m 6,4 km/h (2 Bft) 95,74 %
15.06.2021 22:20 21,9 C 20,6 C 18,4 C 61 % 1018,8 hPa 0,0 l/m 0 min 0 min 0 W/m 6,4 km/h (2 Bft) 97,87 %
15.06.2021 22:22 21,9 C 20,6 C 18,4 C 62 % 1018,8 hPa 0,0 l/m 0 min 0 min 0 W/m 6,4 km/h (2 Bft) 97,87 %
15.06.2021 22:24 21,8 C 20,6 C 18,4 C 61 % 1018,8 hPa 0,0 l/m 0 min 0 min 0 W/m 9,7 km/h (2 Bft) 97,87 %
15.06.2021 22:26 21,8 C 20,6 C 18,4 C 62 % 1018,8 hPa 0,0 l/m 0 min 0 min 0 W/m 6,4 km/h (2 Bft) 95,65 %
15.06.2021 22:28 21,7 C 20,6 C 18,4 C 62 % 1018,8 hPa 0,0 l/m 0 min 0 min 0 W/m 6,4 km/h (2 Bft) 95,74 %
15.06.2021 22:30 21,6 C 20,6 C 18,4 C 62 % 1018,8 hPa 0,0 l/m 0 min 0 min 0 W/m 9,7 km/h (2 Bft) 95,74 %
15.06.2021 22:32 21,6 C 20,6 C 18,4 C 62 % 1018,7 hPa 0,0 l/m 0 min 0 min 0 W/m 12,9 km/h (3 Bft) 93,62 %
15.06.2021 22:34 21,6 C 20,6 C 18,4 C 62 % 1018,7 hPa 0,0 l/m 0 min 0 min 0 W/m 9,7 km/h (2 Bft) 95,74 %
15.06.2021 22:36 21,5 C 20,6 C 18,4 C 62 % 1018,8 hPa 0,0 l/m 0 min 0 min 0 W/m 6,4 km/h (2 Bft) 95,74 %
15.06.2021 22:38 21,5 C 20,6 C 18,4 C 62 % 1018,7 hPa 0,0 l/m 0 min 0 min 0 W/m 3,2 km/h (1 Bft) 95,65 %
15.06.2021 22:40 21,5 C 20,6 C 18,4 C 62 % 1018,8 hPa 0,0 l/m 0 min 0 min 0 W/m 6,4 km/h (2 Bft) 93,62 %
15.06.2021 22:42 21,4 C 20,0 C 17,8 C 63 % 1018,8 hPa 0,0 l/m 0 min 0 min 0 W/m 6,4 km/h (2 Bft) 95,74 %
15.06.2021 22:44 21,4 C 20,0 C 17,8 C 62 % 1018,8 hPa 0,0 l/m 0 min 0 min 0 W/m 3,2 km/h (1 Bft) 97,87 %
15.06.2021 22:46 21,4 C 20,0 C 17,8 C 63 % 1018,8 hPa 0,0 l/m 0 min 0 min 0 W/m 6,4 km/h (2 Bft) 95,74 %
15.06.2021 22:48 21,3 C 20,0 C 17,8 C 63 % 1018,8 hPa 0,0 l/m 0 min 0 min 0 W/m 3,2 km/h (1 Bft) 97,83 %
15.06.2021 22:50 21,3 C 20,0 C 17,8 C 63 % 1018,8 hPa 0,0 l/m 0 min 0 min 0 W/m 6,4 km/h (2 Bft) 97,87 %
15.06.2021 22:52 21,3 C 20,0 C 17,8 C 63 % 1018,8 hPa 0,0 l/m 0 min 0 min 0 W/m 6,4 km/h (2 Bft) 97,87 %
15.06.2021 22:54 21,3 C 20,0 C 17,8 C 63 % 1018,8 hPa 0,0 l/m 0 min 0 min 0 W/m 3,2 km/h (1 Bft) 97,87 %
15.06.2021 22:56 21,2 C 20,0 C 17,8 C 63 % 1018,8 hPa 0,0 l/m 0 min 0 min 0 W/m 0,0 km/h (0 Bft) 97,87 %
15.06.2021 22:58 21,2 C 20,0 C 17,8 C 64 % 1018,8 hPa 0,0 l/m 0 min 0 min 0 W/m 3,2 km/h (1 Bft) 97,87 %
15.06.2021 23:00 21,1 C 20,0 C 17,8 C 64 % 1018,8 hPa 0,0 l/m 0 min 0 min 0 W/m 3,2 km/h (1 Bft) 95,74 %
15.06.2021 23:02 21,1 C 20,0 C 17,8 C 64 % 1018,8 hPa 0,0 l/m 0 min 0 min 0 W/m 6,4 km/h (2 Bft) 97,87 %
15.06.2021 23:04 21,0 C 20,0 C 17,8 C 64 % 1018,8 hPa 0,0 l/m 0 min 0 min 0 W/m 3,2 km/h (1 Bft) 95,74 %
15.06.2021 23:06 21,0 C 20,0 C 17,8 C 64 % 1018,8 hPa 0,0 l/m 0 min 0 min 0 W/m 9,7 km/h (2 Bft) 97,87 %
15.06.2021 23:08 21,0 C 20,0 C 17,8 C 63 % 1018,8 hPa 0,0 l/m 0 min 0 min 0 W/m 3,2 km/h (1 Bft) 97,87 %
15.06.2021 23:10 20,9 C 20,0 C 17,8 C 63 % 1018,8 hPa 0,0 l/m 0 min 0 min 0 W/m 3,2 km/h (1 Bft) 97,87 %
15.06.2021 23:12 20,9 C 20,0 C 17,8 C 63 % 1018,8 hPa 0,0 l/m 0 min 0 min 0 W/m 3,2 km/h (1 Bft) 97,83 %
15.06.2021 23:14 20,9 C 19,4 C 17,8 C 63 % 1018,8 hPa 0,0 l/m 0 min 0 min 0 W/m 6,4 km/h (2 Bft) 95,74 %
15.06.2021 23:16 20,9 C 19,4 C 17,3 C 64 % 1018,7 hPa 0,0 l/m 0 min 0 min 0 W/m 6,4 km/h (2 Bft) 97,87 %
15.06.2021 23:18 20,8 C 19,4 C 17,8 C 63 % 1018,7 hPa 0,0 l/m 0 min 0 min 0 W/m 3,2 km/h (1 Bft) 97,87 %
15.06.2021 23:20 20,8 C 19,4 C 17,3 C 64 % 1018,7 hPa 0,0 l/m 0 min 0 min 0 W/m 6,4 km/h (2 Bft) 97,87 %
15.06.2021 23:22 20,8 C 19,4 C 17,3 C 64 % 1018,7 hPa 0,0 l/m 0 min 0 min 0 W/m 3,2 km/h (1 Bft) 97,87 %
15.06.2021 23:24 20,7 C 19,4 C 17,3 C 64 % 1018,7 hPa 0,0 l/m 0 min 0 min 0 W/m 6,4 km/h (2 Bft) 97,83 %
15.06.2021 23:26 20,7 C 19,4 C 17,3 C 64 % 1018,7 hPa 0,0 l/m 0 min 0 min 0 W/m 9,7 km/h (2 Bft) 97,87 %
15.06.2021 23:28 20,6 C 19,4 C 17,3 C 64 % 1018,7 hPa 0,0 l/m 0 min 0 min 0 W/m 6,4 km/h (2 Bft) 97,87 %
15.06.2021 23:30 20,6 C 19,4 C 17,3 C 64 % 1018,7 hPa 0,0 l/m 0 min 0 min 0 W/m 3,2 km/h (1 Bft) 93,62 %
15.06.2021 23:32 20,6 C 19,4 C 17,3 C 64 % 1018,7 hPa 0,0 l/m 0 min 0 min 0 W/m 6,4 km/h (2 Bft) 97,87 %
15.06.2021 23:34 20,6 C 19,4 C 17,3 C 64 % 1018,7 hPa 0,0 l/m 0 min 0 min 0 W/m 6,4 km/h (2 Bft) 97,37 %
15.06.2021 23:36 20,6 C 19,4 C 17,3 C 64 % 1018,7 hPa 0,0 l/m 0 min 0 min 0 W/m 3,2 km/h (1 Bft) 100,00 %
15.06.2021 23:38 20,5 C 19,4 C 17,3 C 65 % 1018,6 hPa 0,0 l/m 0 min 0 min 0 W/m 3,2 km/h (1 Bft) 100,00 %
15.06.2021 23:40 20,5 C 19,4 C 17,3 C 64 % 1018,6 hPa 0,0 l/m 0 min 0 min 0 W/m 3,2 km/h (1 Bft) 97,87 %
15.06.2021 23:42 20,5 C 19,4 C 17,3 C 65 % 1018,6 hPa 0,0 l/m 0 min 0 min 0 W/m 3,2 km/h (1 Bft) 97,87 %
15.06.2021 23:44 20,5 C 19,4 C 17,3 C 66 % 1018,7 hPa 0,0 l/m 0 min 0 min 0 W/m 3,2 km/h (1 Bft) 100,00 %
15.06.2021 23:46 20,4 C 19,4 C 17,3 C 65 % 1018,6 hPa 0,0 l/m 0 min 0 min 0 W/m 6,4 km/h (2 Bft) 100,00 %
15.06.2021 23:48 20,4 C 19,4 C 17,3 C 65 % 1018,6 hPa 0,0 l/m 0 min 0 min 0 W/m 3,2 km/h (1 Bft) 100,00 %
15.06.2021 23:50 20,4 C 19,4 C 17,3 C 66 % 1018,6 hPa 0,0 l/m 0 min 0 min 0 W/m 3,2 km/h (1 Bft) 97,83 %
15.06.2021 23:52 20,4 C 18,9 C 16,7 C 67 % 1018,6 hPa 0,0 l/m 0 min 0 min 0 W/m 0,0 km/h (0 Bft) 100,00 %
15.06.2021 23:54 20,3 C 18,9 C 16,7 C 66 % 1018,6 hPa 0,0 l/m 0 min 0 min 0 W/m 3,2 km/h (1 Bft) 97,14 %
15.06.2021 23:56 20,3 C 18,9 C 16,7 C 66 % 1018,6 hPa 0,0 l/m 0 min 0 min 0 W/m 3,2 km/h (1 Bft) 100,00 %
15.06.2021 23:58 20,3 C 18,9 C 16,7 C 66 % 1018,5 hPa 0,0 l/m 0 min 0 min 0 W/m 3,2 km/h (1 Bft) 100,00 %
_ Min-Zeit 05:40 04:48 04:12 18:04 20:02 - - - - 00:44 04:05
Minimum _ 16,9 C 16,1 C 14,5 C 49 % 1018,5 hPa - - - - 0,0 km/h (0 Bft) 60,53 %
_ Max-Zeit 18:16 17:26 12:56 06:24 09:50 00:00 12:08 00:00 13:58 15:26 00:02
Maximum _ 27,6 C 32,8 C 32,8 C 91 % 1021,0 hPa 0,0 l/m 4 min 0 min 1076 W/m 32,2 km/h
NW (5 Bft)
100,00 %
Durchschnitt _ 22,3 C 23,2 C 20,9 C 67 % 1019,7 hPa #0,0 l/m #12:12 h #0 min. 456 W/m 10,2 km/h (2 Bft) 97,18 %
© 2021 W. Hausmann